﻿<?xml version="1.0" encoding="UTF-8" standalone="no" ?>
<gpx xmlns="http://www.topografix.com/GPX/1/1" creator="CompeGPS" version="1.1" xmlns:xsi="http://www.w3.org/2001/XMLSchema-instance" xsi:schemaLocation="http://www.topografix.com/GPX/1/1 http://www.topografix.com/GPX/1/1/gpx.xsd http://www.garmin.com/xmlschemas/GpxExtensions/v3 http://www.garmin.com/xmlschemas/GpxExtensionsv3.xsd http://www.garmin.com/xmlschemas/TrackPointExtension/v1 http://www.garmin.com/xmlschemas/TrackPointExtensionv1.xsd" xmlns:gpxtpx="http://www.garmin.com/xmlschemas/TrackPointExtension/v1">
  <metadata>
    <link href="http://www.compegps.com">
      <text>CompeGPS TEAM, SL</text>
    </link>
    <time>2013-01-30T13:05:16Z</time>
    <bounds maxlat="42.944903" maxlon="0.854906" minlat="42.917228" minlon="0.828015"/>
  </metadata>
<wpt lat="42.944890" lon="0.854535">
<ele>1069</ele>
<name>Col de Portet d_Aspet</name>
</wpt>
<wpt lat="42.931656" lon="0.842501">
<ele>1206</ele>
<name>Col de la Bene</name>
</wpt>
<wpt lat="42.925483" lon="0.843620">
<ele>1425</ele>
<name>Col de l Artigue</name>
</wpt>
<wpt lat="42.923469" lon="0.842773">
<ele>1478</ele>
<name>Cabane du Bazet</name>
</wpt>
<wpt lat="42.917228" lon="0.828017">
<ele>1669</ele>
<name>Le Puech</name>
</wpt>
  <trk>
    <name>Puech</name>
    <trkseg>
      <trkpt lat="42.944890" lon="0.854535">
        <ele>1069.1</ele>
        <time>2013-01-29T07:40:15Z</time>
        <name>Col de Portet d_Aspet</name>
      </trkpt>
      <trkpt lat="42.944868" lon="0.854574">
        <ele>1073.0</ele>
        <time>2013-01-29T07:43:45Z</time>
      </trkpt>
      <trkpt lat="42.944900" lon="0.854513">
        <ele>1073.0</ele>
        <time>2013-01-29T07:44:31Z</time>
      </trkpt>
      <trkpt lat="42.944903" lon="0.854353">
        <ele>1073.0</ele>
        <time>2013-01-29T07:44:47Z</time>
      </trkpt>
      <trkpt lat="42.944895" lon="0.854240">
        <ele>1073.9</ele>
        <time>2013-01-29T07:45:02Z</time>
      </trkpt>
      <trkpt lat="42.944869" lon="0.854118">
        <ele>1073.9</ele>
        <time>2013-01-29T07:45:16Z</time>
      </trkpt>
      <trkpt lat="42.944819" lon="0.854010">
        <ele>1074.9</ele>
        <time>2013-01-29T07:45:26Z</time>
      </trkpt>
      <trkpt lat="42.944728" lon="0.854036">
        <ele>1075.4</ele>
        <time>2013-01-29T07:45:36Z</time>
      </trkpt>
      <trkpt lat="42.944675" lon="0.854102">
        <ele>1075.8</ele>
        <time>2013-01-29T07:46:16Z</time>
      </trkpt>
      <trkpt lat="42.944660" lon="0.854157">
        <ele>1076.3</ele>
        <time>2013-01-29T07:47:29Z</time>
      </trkpt>
      <trkpt lat="42.944580" lon="0.854254">
        <ele>1076.8</ele>
        <time>2013-01-29T07:49:13Z</time>
      </trkpt>
      <trkpt lat="42.944539" lon="0.854360">
        <ele>1078.7</ele>
        <time>2013-01-29T07:49:43Z</time>
      </trkpt>
      <trkpt lat="42.944473" lon="0.854454">
        <ele>1080.2</ele>
        <time>2013-01-29T07:49:56Z</time>
      </trkpt>
      <trkpt lat="42.944390" lon="0.854524">
        <ele>1080.7</ele>
        <time>2013-01-29T07:50:11Z</time>
      </trkpt>
      <trkpt lat="42.944317" lon="0.854622">
        <ele>1081.6</ele>
        <time>2013-01-29T07:50:25Z</time>
      </trkpt>
      <trkpt lat="42.944218" lon="0.854681">
        <ele>1082.6</ele>
        <time>2013-01-29T07:50:37Z</time>
      </trkpt>
      <trkpt lat="42.944134" lon="0.854779">
        <ele>1084.0</ele>
        <time>2013-01-29T07:50:52Z</time>
      </trkpt>
      <trkpt lat="42.944019" lon="0.854841">
        <ele>1084.0</ele>
        <time>2013-01-29T07:51:05Z</time>
      </trkpt>
      <trkpt lat="42.943899" lon="0.854905">
        <ele>1084.5</ele>
        <time>2013-01-29T07:51:17Z</time>
      </trkpt>
      <trkpt lat="42.943797" lon="0.854906">
        <ele>1084.0</ele>
        <time>2013-01-29T07:51:29Z</time>
      </trkpt>
      <trkpt lat="42.943695" lon="0.854848">
        <ele>1084.0</ele>
        <time>2013-01-29T07:51:40Z</time>
      </trkpt>
      <trkpt lat="42.943609" lon="0.854756">
        <ele>1082.1</ele>
        <time>2013-01-29T07:51:51Z</time>
      </trkpt>
      <trkpt lat="42.943514" lon="0.854660">
        <ele>1081.1</ele>
        <time>2013-01-29T07:52:03Z</time>
      </trkpt>
      <trkpt lat="42.943412" lon="0.854595">
        <ele>1080.7</ele>
        <time>2013-01-29T07:52:14Z</time>
      </trkpt>
      <trkpt lat="42.943314" lon="0.854568">
        <ele>1080.2</ele>
        <time>2013-01-29T07:52:25Z</time>
      </trkpt>
      <trkpt lat="42.943221" lon="0.854574">
        <ele>1081.1</ele>
        <time>2013-01-29T07:52:37Z</time>
      </trkpt>
      <trkpt lat="42.943086" lon="0.854515">
        <ele>1083.1</ele>
        <time>2013-01-29T07:52:58Z</time>
      </trkpt>
      <trkpt lat="42.942922" lon="0.854435">
        <ele>1085.5</ele>
        <time>2013-01-29T07:53:22Z</time>
      </trkpt>
      <trkpt lat="42.942767" lon="0.854365">
        <ele>1087.4</ele>
        <time>2013-01-29T07:53:41Z</time>
      </trkpt>
      <trkpt lat="42.942645" lon="0.854247">
        <ele>1089.8</ele>
        <time>2013-01-29T07:54:03Z</time>
      </trkpt>
      <trkpt lat="42.942534" lon="0.854098">
        <ele>1092.2</ele>
        <time>2013-01-29T07:54:24Z</time>
      </trkpt>
      <trkpt lat="42.942485" lon="0.853891">
        <ele>1093.6</ele>
        <time>2013-01-29T07:54:44Z</time>
      </trkpt>
      <trkpt lat="42.942408" lon="0.853621">
        <ele>1090.8</ele>
        <time>2013-01-29T07:55:10Z</time>
      </trkpt>
      <trkpt lat="42.942360" lon="0.853394">
        <ele>1088.3</ele>
        <time>2013-01-29T07:55:29Z</time>
      </trkpt>
      <trkpt lat="42.942278" lon="0.853206">
        <ele>1087.9</ele>
        <time>2013-01-29T07:55:48Z</time>
      </trkpt>
      <trkpt lat="42.942170" lon="0.853028">
        <ele>1087.9</ele>
        <time>2013-01-29T07:56:06Z</time>
      </trkpt>
      <trkpt lat="42.942016" lon="0.852823">
        <ele>1088.8</ele>
        <time>2013-01-29T07:56:28Z</time>
      </trkpt>
      <trkpt lat="42.941871" lon="0.852687">
        <ele>1089.3</ele>
        <time>2013-01-29T07:56:44Z</time>
      </trkpt>
      <trkpt lat="42.941724" lon="0.852585">
        <ele>1089.8</ele>
        <time>2013-01-29T07:57:00Z</time>
      </trkpt>
      <trkpt lat="42.941589" lon="0.852528">
        <ele>1089.8</ele>
        <time>2013-01-29T07:57:16Z</time>
      </trkpt>
      <trkpt lat="42.941429" lon="0.852424">
        <ele>1090.3</ele>
        <time>2013-01-29T07:57:34Z</time>
      </trkpt>
      <trkpt lat="42.941263" lon="0.852349">
        <ele>1089.8</ele>
        <time>2013-01-29T07:57:51Z</time>
      </trkpt>
      <trkpt lat="42.941136" lon="0.852264">
        <ele>1089.8</ele>
        <time>2013-01-29T07:58:03Z</time>
      </trkpt>
      <trkpt lat="42.941010" lon="0.852217">
        <ele>1090.3</ele>
        <time>2013-01-29T07:58:17Z</time>
      </trkpt>
      <trkpt lat="42.940878" lon="0.852154">
        <ele>1090.3</ele>
        <time>2013-01-29T07:58:29Z</time>
      </trkpt>
      <trkpt lat="42.940763" lon="0.852169">
        <ele>1092.7</ele>
        <time>2013-01-29T07:58:46Z</time>
      </trkpt>
      <trkpt lat="42.940611" lon="0.852187">
        <ele>1093.6</ele>
        <time>2013-01-29T07:59:02Z</time>
      </trkpt>
      <trkpt lat="42.940469" lon="0.852161">
        <ele>1095.1</ele>
        <time>2013-01-29T07:59:18Z</time>
      </trkpt>
      <trkpt lat="42.940331" lon="0.852084">
        <ele>1097.5</ele>
        <time>2013-01-29T07:59:37Z</time>
      </trkpt>
      <trkpt lat="42.940229" lon="0.852015">
        <ele>1099.4</ele>
        <time>2013-01-29T07:59:50Z</time>
      </trkpt>
      <trkpt lat="42.940125" lon="0.852009">
        <ele>1100.4</ele>
        <time>2013-01-29T08:00:03Z</time>
      </trkpt>
      <trkpt lat="42.940031" lon="0.852027">
        <ele>1100.8</ele>
        <time>2013-01-29T08:00:14Z</time>
      </trkpt>
      <trkpt lat="42.939930" lon="0.852056">
        <ele>1101.8</ele>
        <time>2013-01-29T08:00:27Z</time>
      </trkpt>
      <trkpt lat="42.939833" lon="0.852089">
        <ele>1103.2</ele>
        <time>2013-01-29T08:00:39Z</time>
      </trkpt>
      <trkpt lat="42.939735" lon="0.852097">
        <ele>1103.2</ele>
        <time>2013-01-29T08:00:52Z</time>
      </trkpt>
      <trkpt lat="42.939640" lon="0.852105">
        <ele>1105.2</ele>
        <time>2013-01-29T08:01:05Z</time>
      </trkpt>
      <trkpt lat="42.939537" lon="0.852061">
        <ele>1106.6</ele>
        <time>2013-01-29T08:01:20Z</time>
      </trkpt>
      <trkpt lat="42.939442" lon="0.852048">
        <ele>1107.6</ele>
        <time>2013-01-29T08:01:33Z</time>
      </trkpt>
      <trkpt lat="42.939332" lon="0.852012">
        <ele>1109.5</ele>
        <time>2013-01-29T08:01:49Z</time>
      </trkpt>
      <trkpt lat="42.939235" lon="0.851957">
        <ele>1110.9</ele>
        <time>2013-01-29T08:02:04Z</time>
      </trkpt>
      <trkpt lat="42.939123" lon="0.851886">
        <ele>1113.3</ele>
        <time>2013-01-29T08:02:22Z</time>
      </trkpt>
      <trkpt lat="42.939018" lon="0.851807">
        <ele>1115.3</ele>
        <time>2013-01-29T08:02:40Z</time>
      </trkpt>
      <trkpt lat="42.938907" lon="0.851725">
        <ele>1118.2</ele>
        <time>2013-01-29T08:03:00Z</time>
      </trkpt>
      <trkpt lat="42.938811" lon="0.851634">
        <ele>1121.5</ele>
        <time>2013-01-29T08:03:22Z</time>
      </trkpt>
      <trkpt lat="42.938721" lon="0.851524">
        <ele>1124.4</ele>
        <time>2013-01-29T08:03:46Z</time>
      </trkpt>
      <trkpt lat="42.938583" lon="0.851388">
        <ele>1126.8</ele>
        <time>2013-01-29T08:04:12Z</time>
      </trkpt>
      <trkpt lat="42.938435" lon="0.851265">
        <ele>1130.2</ele>
        <time>2013-01-29T08:04:37Z</time>
      </trkpt>
      <trkpt lat="42.938316" lon="0.851146">
        <ele>1132.6</ele>
        <time>2013-01-29T08:05:05Z</time>
      </trkpt>
      <trkpt lat="42.938174" lon="0.850975">
        <ele>1135.0</ele>
        <time>2013-01-29T08:05:34Z</time>
      </trkpt>
      <trkpt lat="42.938058" lon="0.850880">
        <ele>1136.4</ele>
        <time>2013-01-29T08:05:53Z</time>
      </trkpt>
      <trkpt lat="42.937939" lon="0.850814">
        <ele>1137.9</ele>
        <time>2013-01-29T08:06:11Z</time>
      </trkpt>
      <trkpt lat="42.937800" lon="0.850769">
        <ele>1139.3</ele>
        <time>2013-01-29T08:06:33Z</time>
      </trkpt>
      <trkpt lat="42.937660" lon="0.850712">
        <ele>1140.7</ele>
        <time>2013-01-29T08:06:51Z</time>
      </trkpt>
      <trkpt lat="42.937550" lon="0.850656">
        <ele>1141.7</ele>
        <time>2013-01-29T08:07:04Z</time>
      </trkpt>
      <trkpt lat="42.937450" lon="0.850579">
        <ele>1144.1</ele>
        <time>2013-01-29T08:07:19Z</time>
      </trkpt>
      <trkpt lat="42.937356" lon="0.850526">
        <ele>1146.0</ele>
        <time>2013-01-29T08:07:35Z</time>
      </trkpt>
      <trkpt lat="42.937273" lon="0.850442">
        <ele>1142.7</ele>
        <time>2013-01-29T08:07:54Z</time>
      </trkpt>
      <trkpt lat="42.937230" lon="0.850388">
        <ele>1150.8</ele>
        <time>2013-01-29T08:09:05Z</time>
      </trkpt>
      <trkpt lat="42.937246" lon="0.850346">
        <ele>1151.3</ele>
        <time>2013-01-29T08:11:58Z</time>
      </trkpt>
      <trkpt lat="42.937148" lon="0.850155">
        <ele>1155.2</ele>
        <time>2013-01-29T08:12:51Z</time>
      </trkpt>
      <trkpt lat="42.937025" lon="0.849976">
        <ele>1159.5</ele>
        <time>2013-01-29T08:13:29Z</time>
      </trkpt>
      <trkpt lat="42.936873" lon="0.849996">
        <ele>1162.4</ele>
        <time>2013-01-29T08:13:55Z</time>
      </trkpt>
      <trkpt lat="42.936791" lon="0.849954">
        <ele>1166.7</ele>
        <time>2013-01-29T08:14:16Z</time>
      </trkpt>
      <trkpt lat="42.936652" lon="0.849896">
        <ele>1170.5</ele>
        <time>2013-01-29T08:14:42Z</time>
      </trkpt>
      <trkpt lat="42.936488" lon="0.849843">
        <ele>1174.9</ele>
        <time>2013-01-29T08:15:13Z</time>
      </trkpt>
      <trkpt lat="42.936360" lon="0.849785">
        <ele>1179.7</ele>
        <time>2013-01-29T08:15:41Z</time>
      </trkpt>
      <trkpt lat="42.936218" lon="0.849775">
        <ele>1182.6</ele>
        <time>2013-01-29T08:16:15Z</time>
      </trkpt>
      <trkpt lat="42.936114" lon="0.849669">
        <ele>1186.4</ele>
        <time>2013-01-29T08:16:42Z</time>
      </trkpt>
      <trkpt lat="42.936035" lon="0.849552">
        <ele>1189.3</ele>
        <time>2013-01-29T08:17:02Z</time>
      </trkpt>
      <trkpt lat="42.935965" lon="0.849436">
        <ele>1191.2</ele>
        <time>2013-01-29T08:17:21Z</time>
      </trkpt>
      <trkpt lat="42.935888" lon="0.849287">
        <ele>1193.1</ele>
        <time>2013-01-29T08:17:46Z</time>
      </trkpt>
      <trkpt lat="42.935826" lon="0.849100">
        <ele>1195.5</ele>
        <time>2013-01-29T08:18:06Z</time>
      </trkpt>
      <trkpt lat="42.935746" lon="0.848882">
        <ele>1198.4</ele>
        <time>2013-01-29T08:18:31Z</time>
      </trkpt>
      <trkpt lat="42.935624" lon="0.848646">
        <ele>1200.3</ele>
        <time>2013-01-29T08:18:55Z</time>
      </trkpt>
      <trkpt lat="42.935548" lon="0.848474">
        <ele>1203.7</ele>
        <time>2013-01-29T08:19:18Z</time>
      </trkpt>
      <trkpt lat="42.935446" lon="0.848273">
        <ele>1207.6</ele>
        <time>2013-01-29T08:19:44Z</time>
      </trkpt>
      <trkpt lat="42.935381" lon="0.848122">
        <ele>1209.0</ele>
        <time>2013-01-29T08:20:03Z</time>
      </trkpt>
      <trkpt lat="42.935346" lon="0.847943">
        <ele>1210.0</ele>
        <time>2013-01-29T08:20:20Z</time>
      </trkpt>
      <trkpt lat="42.935298" lon="0.847746">
        <ele>1210.4</ele>
        <time>2013-01-29T08:20:39Z</time>
      </trkpt>
      <trkpt lat="42.935231" lon="0.847576">
        <ele>1210.9</ele>
        <time>2013-01-29T08:20:54Z</time>
      </trkpt>
      <trkpt lat="42.935171" lon="0.847442">
        <ele>1211.4</ele>
        <time>2013-01-29T08:21:07Z</time>
      </trkpt>
      <trkpt lat="42.935112" lon="0.847320">
        <ele>1211.4</ele>
        <time>2013-01-29T08:21:34Z</time>
      </trkpt>
      <trkpt lat="42.935076" lon="0.847199">
        <ele>1212.4</ele>
        <time>2013-01-29T08:21:48Z</time>
      </trkpt>
      <trkpt lat="42.935028" lon="0.847055">
        <ele>1213.3</ele>
        <time>2013-01-29T08:22:03Z</time>
      </trkpt>
      <trkpt lat="42.934966" lon="0.846930">
        <ele>1214.3</ele>
        <time>2013-01-29T08:22:15Z</time>
      </trkpt>
      <trkpt lat="42.934921" lon="0.846797">
        <ele>1214.3</ele>
        <time>2013-01-29T08:22:28Z</time>
      </trkpt>
      <trkpt lat="42.934866" lon="0.846634">
        <ele>1216.2</ele>
        <time>2013-01-29T08:22:43Z</time>
      </trkpt>
      <trkpt lat="42.934802" lon="0.846511">
        <ele>1217.2</ele>
        <time>2013-01-29T08:22:56Z</time>
      </trkpt>
      <trkpt lat="42.934709" lon="0.846387">
        <ele>1219.1</ele>
        <time>2013-01-29T08:23:11Z</time>
      </trkpt>
      <trkpt lat="42.934627" lon="0.846263">
        <ele>1221.0</ele>
        <time>2013-01-29T08:23:27Z</time>
      </trkpt>
      <trkpt lat="42.934536" lon="0.846176">
        <ele>1222.4</ele>
        <time>2013-01-29T08:23:45Z</time>
      </trkpt>
      <trkpt lat="42.934430" lon="0.846112">
        <ele>1223.9</ele>
        <time>2013-01-29T08:23:59Z</time>
      </trkpt>
      <trkpt lat="42.934304" lon="0.846017">
        <ele>1222.9</ele>
        <time>2013-01-29T08:24:15Z</time>
      </trkpt>
      <trkpt lat="42.934149" lon="0.845998">
        <ele>1224.4</ele>
        <time>2013-01-29T08:24:30Z</time>
      </trkpt>
      <trkpt lat="42.934061" lon="0.845968">
        <ele>1224.4</ele>
        <time>2013-01-29T08:24:42Z</time>
      </trkpt>
      <trkpt lat="42.933966" lon="0.845887">
        <ele>1224.9</ele>
        <time>2013-01-29T08:24:55Z</time>
      </trkpt>
      <trkpt lat="42.933889" lon="0.845756">
        <ele>1225.3</ele>
        <time>2013-01-29T08:25:09Z</time>
      </trkpt>
      <trkpt lat="42.933831" lon="0.845625">
        <ele>1224.9</ele>
        <time>2013-01-29T08:25:21Z</time>
      </trkpt>
      <trkpt lat="42.933797" lon="0.845483">
        <ele>1224.9</ele>
        <time>2013-01-29T08:25:33Z</time>
      </trkpt>
      <trkpt lat="42.933741" lon="0.845317">
        <ele>1223.9</ele>
        <time>2013-01-29T08:25:48Z</time>
      </trkpt>
      <trkpt lat="42.933675" lon="0.845131">
        <ele>1223.4</ele>
        <time>2013-01-29T08:26:04Z</time>
      </trkpt>
      <trkpt lat="42.933578" lon="0.844987">
        <ele>1223.4</ele>
        <time>2013-01-29T08:26:19Z</time>
      </trkpt>
      <trkpt lat="42.933494" lon="0.844871">
        <ele>1223.4</ele>
        <time>2013-01-29T08:26:33Z</time>
      </trkpt>
      <trkpt lat="42.933422" lon="0.844704">
        <ele>1221.5</ele>
        <time>2013-01-29T08:26:50Z</time>
      </trkpt>
      <trkpt lat="42.933329" lon="0.844472">
        <ele>1219.6</ele>
        <time>2013-01-29T08:27:07Z</time>
      </trkpt>
      <trkpt lat="42.933232" lon="0.844285">
        <ele>1219.1</ele>
        <time>2013-01-29T08:27:20Z</time>
      </trkpt>
      <trkpt lat="42.933167" lon="0.844146">
        <ele>1217.7</ele>
        <time>2013-01-29T08:27:33Z</time>
      </trkpt>
      <trkpt lat="42.933075" lon="0.844042">
        <ele>1215.7</ele>
        <time>2013-01-29T08:27:47Z</time>
      </trkpt>
      <trkpt lat="42.932945" lon="0.843974">
        <ele>1215.2</ele>
        <time>2013-01-29T08:28:01Z</time>
      </trkpt>
      <trkpt lat="42.932837" lon="0.843870">
        <ele>1215.2</ele>
        <time>2013-01-29T08:28:14Z</time>
      </trkpt>
      <trkpt lat="42.932724" lon="0.843779">
        <ele>1214.8</ele>
        <time>2013-01-29T08:28:26Z</time>
      </trkpt>
      <trkpt lat="42.932632" lon="0.843683">
        <ele>1212.8</ele>
        <time>2013-01-29T08:28:38Z</time>
      </trkpt>
      <trkpt lat="42.932522" lon="0.843627">
        <ele>1211.9</ele>
        <time>2013-01-29T08:28:50Z</time>
      </trkpt>
      <trkpt lat="42.932428" lon="0.843570">
        <ele>1211.9</ele>
        <time>2013-01-29T08:29:02Z</time>
      </trkpt>
      <trkpt lat="42.932345" lon="0.843509">
        <ele>1211.9</ele>
        <time>2013-01-29T08:29:26Z</time>
      </trkpt>
      <trkpt lat="42.932263" lon="0.843406">
        <ele>1212.8</ele>
        <time>2013-01-29T08:29:37Z</time>
      </trkpt>
      <trkpt lat="42.932177" lon="0.843269">
        <ele>1212.4</ele>
        <time>2013-01-29T08:29:50Z</time>
      </trkpt>
      <trkpt lat="42.932084" lon="0.843105">
        <ele>1211.9</ele>
        <time>2013-01-29T08:30:04Z</time>
      </trkpt>
      <trkpt lat="42.931992" lon="0.842933">
        <ele>1210.9</ele>
        <time>2013-01-29T08:30:17Z</time>
      </trkpt>
      <trkpt lat="42.931918" lon="0.842791">
        <ele>1209.0</ele>
        <time>2013-01-29T08:30:28Z</time>
      </trkpt>
      <trkpt lat="42.931825" lon="0.842696">
        <ele>1208.5</ele>
        <time>2013-01-29T08:30:39Z</time>
      </trkpt>
      <trkpt lat="42.931760" lon="0.842588">
        <ele>1207.1</ele>
        <time>2013-01-29T08:30:50Z</time>
      </trkpt>
      <trkpt lat="42.931656" lon="0.842501">
        <ele>1207.1</ele>
        <time>2013-01-29T08:31:03Z</time>
        <name>Col de la Bene</name>
      </trkpt>
      <trkpt lat="42.931644" lon="0.842489">
        <ele>1207.6</ele>
        <time>2013-01-29T08:35:35Z</time>
      </trkpt>
      <trkpt lat="42.931541" lon="0.842450">
        <ele>1209.5</ele>
        <time>2013-01-29T08:37:44Z</time>
      </trkpt>
      <trkpt lat="42.931425" lon="0.842413">
        <ele>1210.9</ele>
        <time>2013-01-29T08:38:01Z</time>
      </trkpt>
      <trkpt lat="42.931282" lon="0.842409">
        <ele>1214.8</ele>
        <time>2013-01-29T08:38:22Z</time>
      </trkpt>
      <trkpt lat="42.931148" lon="0.842371">
        <ele>1218.6</ele>
        <time>2013-01-29T08:38:46Z</time>
      </trkpt>
      <trkpt lat="42.931055" lon="0.842334">
        <ele>1222.4</ele>
        <time>2013-01-29T08:39:08Z</time>
      </trkpt>
      <trkpt lat="42.930993" lon="0.842193">
        <ele>1227.3</ele>
        <time>2013-01-29T08:39:32Z</time>
      </trkpt>
      <trkpt lat="42.930963" lon="0.842090">
        <ele>1229.2</ele>
        <time>2013-01-29T08:39:54Z</time>
      </trkpt>
      <trkpt lat="42.930866" lon="0.842008">
        <ele>1233.5</ele>
        <time>2013-01-29T08:40:26Z</time>
      </trkpt>
      <trkpt lat="42.930695" lon="0.841975">
        <ele>1241.2</ele>
        <time>2013-01-29T08:41:09Z</time>
      </trkpt>
      <trkpt lat="42.930554" lon="0.842052">
        <ele>1247.9</ele>
        <time>2013-01-29T08:41:54Z</time>
      </trkpt>
      <trkpt lat="42.930467" lon="0.842090">
        <ele>1250.3</ele>
        <time>2013-01-29T08:42:20Z</time>
      </trkpt>
      <trkpt lat="42.930365" lon="0.842066">
        <ele>1253.2</ele>
        <time>2013-01-29T08:42:43Z</time>
      </trkpt>
      <trkpt lat="42.930239" lon="0.842036">
        <ele>1256.6</ele>
        <time>2013-01-29T08:43:07Z</time>
      </trkpt>
      <trkpt lat="42.930115" lon="0.841978">
        <ele>1260.9</ele>
        <time>2013-01-29T08:43:38Z</time>
      </trkpt>
      <trkpt lat="42.930057" lon="0.841906">
        <ele>1263.8</ele>
        <time>2013-01-29T08:43:57Z</time>
      </trkpt>
      <trkpt lat="42.929951" lon="0.841831">
        <ele>1268.1</ele>
        <time>2013-01-29T08:44:30Z</time>
      </trkpt>
      <trkpt lat="42.929856" lon="0.841772">
        <ele>1271.5</ele>
        <time>2013-01-29T08:44:58Z</time>
      </trkpt>
      <trkpt lat="42.929771" lon="0.841734">
        <ele>1275.8</ele>
        <time>2013-01-29T08:45:28Z</time>
      </trkpt>
      <trkpt lat="42.929658" lon="0.841721">
        <ele>1279.2</ele>
        <time>2013-01-29T08:45:58Z</time>
      </trkpt>
      <trkpt lat="42.929564" lon="0.841662">
        <ele>1283.5</ele>
        <time>2013-01-29T08:46:33Z</time>
      </trkpt>
      <trkpt lat="42.929440" lon="0.841613">
        <ele>1285.4</ele>
        <time>2013-01-29T08:46:56Z</time>
      </trkpt>
      <trkpt lat="42.929298" lon="0.841613">
        <ele>1288.8</ele>
        <time>2013-01-29T08:47:28Z</time>
      </trkpt>
      <trkpt lat="42.929190" lon="0.841582">
        <ele>1290.7</ele>
        <time>2013-01-29T08:47:47Z</time>
      </trkpt>
      <trkpt lat="42.929103" lon="0.841567">
        <ele>1293.6</ele>
        <time>2013-01-29T08:50:31Z</time>
      </trkpt>
      <trkpt lat="42.928985" lon="0.841594">
        <ele>1297.0</ele>
        <time>2013-01-29T08:50:52Z</time>
      </trkpt>
      <trkpt lat="42.928872" lon="0.841579">
        <ele>1299.8</ele>
        <time>2013-01-29T08:51:14Z</time>
      </trkpt>
      <trkpt lat="42.928755" lon="0.841558">
        <ele>1302.2</ele>
        <time>2013-01-29T08:51:48Z</time>
      </trkpt>
      <trkpt lat="42.928634" lon="0.841568">
        <ele>1305.6</ele>
        <time>2013-01-29T08:52:08Z</time>
      </trkpt>
      <trkpt lat="42.928545" lon="0.841556">
        <ele>1308.5</ele>
        <time>2013-01-29T08:52:28Z</time>
      </trkpt>
      <trkpt lat="42.928421" lon="0.841522">
        <ele>1311.4</ele>
        <time>2013-01-29T08:52:50Z</time>
      </trkpt>
      <trkpt lat="42.928301" lon="0.841445">
        <ele>1313.8</ele>
        <time>2013-01-29T08:53:12Z</time>
      </trkpt>
      <trkpt lat="42.928196" lon="0.841377">
        <ele>1315.7</ele>
        <time>2013-01-29T08:53:31Z</time>
      </trkpt>
      <trkpt lat="42.928096" lon="0.841317">
        <ele>1318.6</ele>
        <time>2013-01-29T08:53:48Z</time>
      </trkpt>
      <trkpt lat="42.927994" lon="0.841307">
        <ele>1321.5</ele>
        <time>2013-01-29T08:54:08Z</time>
      </trkpt>
      <trkpt lat="42.927906" lon="0.841377">
        <ele>1325.8</ele>
        <time>2013-01-29T08:54:39Z</time>
      </trkpt>
      <trkpt lat="42.927824" lon="0.841458">
        <ele>1329.6</ele>
        <time>2013-01-29T08:55:31Z</time>
      </trkpt>
      <trkpt lat="42.927741" lon="0.841504">
        <ele>1333.5</ele>
        <time>2013-01-29T08:55:53Z</time>
      </trkpt>
      <trkpt lat="42.927647" lon="0.841529">
        <ele>1336.8</ele>
        <time>2013-01-29T08:56:27Z</time>
      </trkpt>
      <trkpt lat="42.927532" lon="0.841564">
        <ele>1341.2</ele>
        <time>2013-01-29T08:57:06Z</time>
      </trkpt>
      <trkpt lat="42.927443" lon="0.841651">
        <ele>1345.0</ele>
        <time>2013-01-29T08:57:41Z</time>
      </trkpt>
      <trkpt lat="42.927386" lon="0.841773">
        <ele>1347.9</ele>
        <time>2013-01-29T08:58:14Z</time>
      </trkpt>
      <trkpt lat="42.927320" lon="0.841897">
        <ele>1351.8</ele>
        <time>2013-01-29T08:58:48Z</time>
      </trkpt>
      <trkpt lat="42.927214" lon="0.841949">
        <ele>1354.6</ele>
        <time>2013-01-29T08:59:28Z</time>
      </trkpt>
      <trkpt lat="42.927170" lon="0.842060">
        <ele>1356.6</ele>
        <time>2013-01-29T09:00:13Z</time>
      </trkpt>
      <trkpt lat="42.927096" lon="0.842127">
        <ele>1359.0</ele>
        <time>2013-01-29T09:00:30Z</time>
      </trkpt>
      <trkpt lat="42.927015" lon="0.842181">
        <ele>1360.9</ele>
        <time>2013-01-29T09:00:53Z</time>
      </trkpt>
      <trkpt lat="42.926941" lon="0.842233">
        <ele>1363.8</ele>
        <time>2013-01-29T09:01:18Z</time>
      </trkpt>
      <trkpt lat="42.926819" lon="0.842257">
        <ele>1365.7</ele>
        <time>2013-01-29T09:01:44Z</time>
      </trkpt>
      <trkpt lat="42.926719" lon="0.842254">
        <ele>1369.1</ele>
        <time>2013-01-29T09:02:18Z</time>
      </trkpt>
      <trkpt lat="42.926620" lon="0.842253">
        <ele>1371.9</ele>
        <time>2013-01-29T09:02:59Z</time>
      </trkpt>
      <trkpt lat="42.926528" lon="0.842256">
        <ele>1376.3</ele>
        <time>2013-01-29T09:03:45Z</time>
      </trkpt>
      <trkpt lat="42.926425" lon="0.842297">
        <ele>1379.6</ele>
        <time>2013-01-29T09:04:23Z</time>
      </trkpt>
      <trkpt lat="42.926312" lon="0.842355">
        <ele>1383.5</ele>
        <time>2013-01-29T09:04:50Z</time>
      </trkpt>
      <trkpt lat="42.926194" lon="0.842352">
        <ele>1386.4</ele>
        <time>2013-01-29T09:05:12Z</time>
      </trkpt>
      <trkpt lat="42.926103" lon="0.842401">
        <ele>1390.7</ele>
        <time>2013-01-29T09:05:37Z</time>
      </trkpt>
      <trkpt lat="42.926043" lon="0.842484">
        <ele>1393.1</ele>
        <time>2013-01-29T09:05:56Z</time>
      </trkpt>
      <trkpt lat="42.925987" lon="0.842591">
        <ele>1396.9</ele>
        <time>2013-01-29T09:06:17Z</time>
      </trkpt>
      <trkpt lat="42.925961" lon="0.842702">
        <ele>1398.9</ele>
        <time>2013-01-29T09:06:37Z</time>
      </trkpt>
      <trkpt lat="42.925948" lon="0.842836">
        <ele>1402.2</ele>
        <time>2013-01-29T09:06:54Z</time>
      </trkpt>
      <trkpt lat="42.925929" lon="0.842984">
        <ele>1404.1</ele>
        <time>2013-01-29T09:07:11Z</time>
      </trkpt>
      <trkpt lat="42.925898" lon="0.843107">
        <ele>1407.0</ele>
        <time>2013-01-29T09:07:28Z</time>
      </trkpt>
      <trkpt lat="42.925821" lon="0.843211">
        <ele>1410.9</ele>
        <time>2013-01-29T09:07:46Z</time>
      </trkpt>
      <trkpt lat="42.925755" lon="0.843338">
        <ele>1414.7</ele>
        <time>2013-01-29T09:08:08Z</time>
      </trkpt>
      <trkpt lat="42.925676" lon="0.843456">
        <ele>1418.6</ele>
        <time>2013-01-29T09:08:27Z</time>
      </trkpt>
      <trkpt lat="42.925584" lon="0.843536">
        <ele>1421.9</ele>
        <time>2013-01-29T09:08:47Z</time>
      </trkpt>
      <trkpt lat="42.925483" lon="0.843620">
        <ele>1425.3</ele>
        <time>2013-01-29T09:09:07Z</time>
        <name>Col de l Artigue</name>
      </trkpt>
      <trkpt lat="42.925393" lon="0.843529">
        <ele>1426.2</ele>
        <time>2013-01-29T09:09:28Z</time>
      </trkpt>
      <trkpt lat="42.925226" lon="0.843552">
        <ele>1431.5</ele>
        <time>2013-01-29T09:10:00Z</time>
      </trkpt>
      <trkpt lat="42.925132" lon="0.843521">
        <ele>1436.8</ele>
        <time>2013-01-29T09:10:27Z</time>
      </trkpt>
      <trkpt lat="42.924930" lon="0.843501">
        <ele>1442.1</ele>
        <time>2013-01-29T09:11:16Z</time>
      </trkpt>
      <trkpt lat="42.924871" lon="0.843367">
        <ele>1445.5</ele>
        <time>2013-01-29T09:11:39Z</time>
      </trkpt>
      <trkpt lat="42.924761" lon="0.843358">
        <ele>1450.3</ele>
        <time>2013-01-29T09:12:07Z</time>
      </trkpt>
      <trkpt lat="42.924688" lon="0.843424">
        <ele>1455.1</ele>
        <time>2013-01-29T09:12:49Z</time>
      </trkpt>
      <trkpt lat="42.924570" lon="0.843424">
        <ele>1460.4</ele>
        <time>2013-01-29T09:13:12Z</time>
      </trkpt>
      <trkpt lat="42.924461" lon="0.843374">
        <ele>1463.7</ele>
        <time>2013-01-29T09:13:35Z</time>
      </trkpt>
      <trkpt lat="42.924401" lon="0.843225">
        <ele>1464.2</ele>
        <time>2013-01-29T09:14:40Z</time>
      </trkpt>
      <trkpt lat="42.924280" lon="0.843110">
        <ele>1464.7</ele>
        <time>2013-01-29T09:15:00Z</time>
      </trkpt>
      <trkpt lat="42.924178" lon="0.843009">
        <ele>1465.7</ele>
        <time>2013-01-29T09:15:19Z</time>
      </trkpt>
      <trkpt lat="42.924049" lon="0.843002">
        <ele>1468.1</ele>
        <time>2013-01-29T09:16:05Z</time>
      </trkpt>
      <trkpt lat="42.923966" lon="0.842960">
        <ele>1469.5</ele>
        <time>2013-01-29T09:16:17Z</time>
      </trkpt>
      <trkpt lat="42.923897" lon="0.842944">
        <ele>1471.4</ele>
        <time>2013-01-29T09:17:14Z</time>
      </trkpt>
      <trkpt lat="42.923790" lon="0.842939">
        <ele>1472.9</ele>
        <time>2013-01-29T09:17:25Z</time>
      </trkpt>
      <trkpt lat="42.923698" lon="0.842948">
        <ele>1472.9</ele>
        <time>2013-01-29T09:17:35Z</time>
      </trkpt>
      <trkpt lat="42.923598" lon="0.842931">
        <ele>1474.3</ele>
        <time>2013-01-29T09:17:46Z</time>
      </trkpt>
      <trkpt lat="42.923469" lon="0.842773">
        <ele>1472.9</ele>
        <time>2013-01-29T09:31:28Z</time>
        <name>Cabane du Bazet</name>
      </trkpt>
      <trkpt lat="42.923447" lon="0.842665">
        <ele>1473.4</ele>
        <time>2013-01-29T09:31:40Z</time>
      </trkpt>
      <trkpt lat="42.923436" lon="0.842559">
        <ele>1472.9</ele>
        <time>2013-01-29T09:32:03Z</time>
      </trkpt>
      <trkpt lat="42.923431" lon="0.842425">
        <ele>1472.4</ele>
        <time>2013-01-29T09:32:12Z</time>
      </trkpt>
      <trkpt lat="42.923371" lon="0.842313">
        <ele>1470.9</ele>
        <time>2013-01-29T09:32:22Z</time>
      </trkpt>
      <trkpt lat="42.923314" lon="0.842212">
        <ele>1470.0</ele>
        <time>2013-01-29T09:32:35Z</time>
      </trkpt>
      <trkpt lat="42.923243" lon="0.842127">
        <ele>1469.0</ele>
        <time>2013-01-29T09:32:47Z</time>
      </trkpt>
      <trkpt lat="42.923157" lon="0.842042">
        <ele>1468.6</ele>
        <time>2013-01-29T09:32:59Z</time>
      </trkpt>
      <trkpt lat="42.923081" lon="0.841961">
        <ele>1467.1</ele>
        <time>2013-01-29T09:33:09Z</time>
      </trkpt>
      <trkpt lat="42.923011" lon="0.841883">
        <ele>1466.6</ele>
        <time>2013-01-29T09:33:19Z</time>
      </trkpt>
      <trkpt lat="42.922933" lon="0.841794">
        <ele>1466.2</ele>
        <time>2013-01-29T09:33:29Z</time>
      </trkpt>
      <trkpt lat="42.922851" lon="0.841716">
        <ele>1464.2</ele>
        <time>2013-01-29T09:33:38Z</time>
      </trkpt>
      <trkpt lat="42.922771" lon="0.841644">
        <ele>1463.7</ele>
        <time>2013-01-29T09:33:47Z</time>
      </trkpt>
      <trkpt lat="42.922704" lon="0.841572">
        <ele>1462.8</ele>
        <time>2013-01-29T09:33:56Z</time>
      </trkpt>
      <trkpt lat="42.922627" lon="0.841499">
        <ele>1460.9</ele>
        <time>2013-01-29T09:34:05Z</time>
      </trkpt>
      <trkpt lat="42.922553" lon="0.841444">
        <ele>1460.9</ele>
        <time>2013-01-29T09:34:14Z</time>
      </trkpt>
      <trkpt lat="42.922480" lon="0.841380">
        <ele>1460.4</ele>
        <time>2013-01-29T09:34:23Z</time>
      </trkpt>
      <trkpt lat="42.922392" lon="0.841331">
        <ele>1460.4</ele>
        <time>2013-01-29T09:34:34Z</time>
      </trkpt>
      <trkpt lat="42.922303" lon="0.841272">
        <ele>1460.9</ele>
        <time>2013-01-29T09:34:44Z</time>
      </trkpt>
      <trkpt lat="42.922220" lon="0.841221">
        <ele>1460.9</ele>
        <time>2013-01-29T09:34:55Z</time>
      </trkpt>
      <trkpt lat="42.922133" lon="0.841181">
        <ele>1461.8</ele>
        <time>2013-01-29T09:35:07Z</time>
      </trkpt>
      <trkpt lat="42.922040" lon="0.841139">
        <ele>1463.3</ele>
        <time>2013-01-29T09:35:22Z</time>
      </trkpt>
      <trkpt lat="42.921955" lon="0.841089">
        <ele>1465.2</ele>
        <time>2013-01-29T09:35:37Z</time>
      </trkpt>
      <trkpt lat="42.921865" lon="0.841087">
        <ele>1466.6</ele>
        <time>2013-01-29T09:35:52Z</time>
      </trkpt>
      <trkpt lat="42.921773" lon="0.841046">
        <ele>1468.1</ele>
        <time>2013-01-29T09:36:08Z</time>
      </trkpt>
      <trkpt lat="42.921757" lon="0.840941">
        <ele>1470.5</ele>
        <time>2013-01-29T09:36:27Z</time>
      </trkpt>
      <trkpt lat="42.921757" lon="0.840831">
        <ele>1472.9</ele>
        <time>2013-01-29T09:36:44Z</time>
      </trkpt>
      <trkpt lat="42.921759" lon="0.840722">
        <ele>1474.3</ele>
        <time>2013-01-29T09:37:00Z</time>
      </trkpt>
      <trkpt lat="42.921751" lon="0.840600">
        <ele>1475.8</ele>
        <time>2013-01-29T09:37:15Z</time>
      </trkpt>
      <trkpt lat="42.921714" lon="0.840477">
        <ele>1477.7</ele>
        <time>2013-01-29T09:37:31Z</time>
      </trkpt>
      <trkpt lat="42.921683" lon="0.840364">
        <ele>1479.6</ele>
        <time>2013-01-29T09:38:00Z</time>
      </trkpt>
      <trkpt lat="42.921675" lon="0.840250">
        <ele>1482.0</ele>
        <time>2013-01-29T09:38:18Z</time>
      </trkpt>
      <trkpt lat="42.921673" lon="0.840139">
        <ele>1483.9</ele>
        <time>2013-01-29T09:38:34Z</time>
      </trkpt>
      <trkpt lat="42.921664" lon="0.840017">
        <ele>1484.9</ele>
        <time>2013-01-29T09:38:39Z</time>
      </trkpt>
      <trkpt lat="42.921641" lon="0.839888">
        <ele>1487.3</ele>
        <time>2013-01-29T09:38:55Z</time>
      </trkpt>
      <trkpt lat="42.921637" lon="0.839781">
        <ele>1488.3</ele>
        <time>2013-01-29T09:39:10Z</time>
      </trkpt>
      <trkpt lat="42.921623" lon="0.839678">
        <ele>1490.2</ele>
        <time>2013-01-29T09:39:26Z</time>
      </trkpt>
      <trkpt lat="42.921613" lon="0.839567">
        <ele>1491.6</ele>
        <time>2013-01-29T09:39:43Z</time>
      </trkpt>
      <trkpt lat="42.921598" lon="0.839452">
        <ele>1493.6</ele>
        <time>2013-01-29T09:40:00Z</time>
      </trkpt>
      <trkpt lat="42.921583" lon="0.839326">
        <ele>1495.0</ele>
        <time>2013-01-29T09:40:18Z</time>
      </trkpt>
      <trkpt lat="42.921569" lon="0.839224">
        <ele>1496.9</ele>
        <time>2013-01-29T09:40:32Z</time>
      </trkpt>
      <trkpt lat="42.921558" lon="0.839103">
        <ele>1498.3</ele>
        <time>2013-01-29T09:40:44Z</time>
      </trkpt>
      <trkpt lat="42.921551" lon="0.838989">
        <ele>1499.8</ele>
        <time>2013-01-29T09:40:58Z</time>
      </trkpt>
      <trkpt lat="42.921536" lon="0.838877">
        <ele>1500.8</ele>
        <time>2013-01-29T09:41:13Z</time>
      </trkpt>
      <trkpt lat="42.921517" lon="0.838769">
        <ele>1503.2</ele>
        <time>2013-01-29T09:41:27Z</time>
      </trkpt>
      <trkpt lat="42.921513" lon="0.838658">
        <ele>1504.1</ele>
        <time>2013-01-29T09:41:42Z</time>
      </trkpt>
      <trkpt lat="42.921475" lon="0.838556">
        <ele>1505.1</ele>
        <time>2013-01-29T09:41:58Z</time>
      </trkpt>
      <trkpt lat="42.921433" lon="0.838450">
        <ele>1506.5</ele>
        <time>2013-01-29T09:42:15Z</time>
      </trkpt>
      <trkpt lat="42.921357" lon="0.838359">
        <ele>1508.9</ele>
        <time>2013-01-29T09:42:32Z</time>
      </trkpt>
      <trkpt lat="42.921279" lon="0.838287">
        <ele>1510.8</ele>
        <time>2013-01-29T09:42:47Z</time>
      </trkpt>
      <trkpt lat="42.921200" lon="0.838221">
        <ele>1513.2</ele>
        <time>2013-01-29T09:43:02Z</time>
      </trkpt>
      <trkpt lat="42.921129" lon="0.838149">
        <ele>1514.7</ele>
        <time>2013-01-29T09:43:17Z</time>
      </trkpt>
      <trkpt lat="42.921059" lon="0.838076">
        <ele>1516.1</ele>
        <time>2013-01-29T09:43:32Z</time>
      </trkpt>
      <trkpt lat="42.920987" lon="0.838009">
        <ele>1517.6</ele>
        <time>2013-01-29T09:43:47Z</time>
      </trkpt>
      <trkpt lat="42.920914" lon="0.837930">
        <ele>1519.5</ele>
        <time>2013-01-29T09:44:02Z</time>
      </trkpt>
      <trkpt lat="42.920836" lon="0.837862">
        <ele>1520.5</ele>
        <time>2013-01-29T09:44:16Z</time>
      </trkpt>
      <trkpt lat="42.920763" lon="0.837798">
        <ele>1520.9</ele>
        <time>2013-01-29T09:44:31Z</time>
      </trkpt>
      <trkpt lat="42.920681" lon="0.837749">
        <ele>1520.9</ele>
        <time>2013-01-29T09:44:44Z</time>
      </trkpt>
      <trkpt lat="42.920605" lon="0.837699">
        <ele>1521.4</ele>
        <time>2013-01-29T09:45:01Z</time>
      </trkpt>
      <trkpt lat="42.920520" lon="0.837659">
        <ele>1521.9</ele>
        <time>2013-01-29T09:45:16Z</time>
      </trkpt>
      <trkpt lat="42.920442" lon="0.837612">
        <ele>1522.4</ele>
        <time>2013-01-29T09:45:30Z</time>
      </trkpt>
      <trkpt lat="42.920385" lon="0.837512">
        <ele>1523.3</ele>
        <time>2013-01-29T09:45:47Z</time>
      </trkpt>
      <trkpt lat="42.920328" lon="0.837396">
        <ele>1525.3</ele>
        <time>2013-01-29T09:46:08Z</time>
      </trkpt>
      <trkpt lat="42.920259" lon="0.837308">
        <ele>1527.2</ele>
        <time>2013-01-29T09:46:26Z</time>
      </trkpt>
      <trkpt lat="42.920234" lon="0.837177">
        <ele>1528.2</ele>
        <time>2013-01-29T09:46:42Z</time>
      </trkpt>
      <trkpt lat="42.920215" lon="0.837066">
        <ele>1530.6</ele>
        <time>2013-01-29T09:46:59Z</time>
      </trkpt>
      <trkpt lat="42.920168" lon="0.836956">
        <ele>1533.0</ele>
        <time>2013-01-29T09:47:19Z</time>
      </trkpt>
      <trkpt lat="42.920131" lon="0.836843">
        <ele>1534.9</ele>
        <time>2013-01-29T09:47:43Z</time>
      </trkpt>
      <trkpt lat="42.920087" lon="0.836714">
        <ele>1537.8</ele>
        <time>2013-01-29T09:48:01Z</time>
      </trkpt>
      <trkpt lat="42.920077" lon="0.836600">
        <ele>1538.7</ele>
        <time>2013-01-29T09:48:17Z</time>
      </trkpt>
      <trkpt lat="42.920051" lon="0.836483">
        <ele>1541.1</ele>
        <time>2013-01-29T09:48:38Z</time>
      </trkpt>
      <trkpt lat="42.920018" lon="0.836364">
        <ele>1543.5</ele>
        <time>2013-01-29T09:48:58Z</time>
      </trkpt>
      <trkpt lat="42.919994" lon="0.836259">
        <ele>1545.0</ele>
        <time>2013-01-29T09:49:17Z</time>
      </trkpt>
      <trkpt lat="42.919957" lon="0.836153">
        <ele>1547.9</ele>
        <time>2013-01-29T09:49:39Z</time>
      </trkpt>
      <trkpt lat="42.919944" lon="0.836032">
        <ele>1550.7</ele>
        <time>2013-01-29T09:50:08Z</time>
      </trkpt>
      <trkpt lat="42.919955" lon="0.835931">
        <ele>1552.7</ele>
        <time>2013-01-29T09:50:29Z</time>
      </trkpt>
      <trkpt lat="42.919975" lon="0.835815">
        <ele>1556.5</ele>
        <time>2013-01-29T09:50:55Z</time>
      </trkpt>
      <trkpt lat="42.919946" lon="0.835692">
        <ele>1559.9</ele>
        <time>2013-01-29T09:51:13Z</time>
      </trkpt>
      <trkpt lat="42.919899" lon="0.835575">
        <ele>1562.8</ele>
        <time>2013-01-29T09:51:29Z</time>
      </trkpt>
      <trkpt lat="42.919870" lon="0.835457">
        <ele>1566.6</ele>
        <time>2013-01-29T09:51:44Z</time>
      </trkpt>
      <trkpt lat="42.919870" lon="0.835332">
        <ele>1569.5</ele>
        <time>2013-01-29T09:51:56Z</time>
      </trkpt>
      <trkpt lat="42.919914" lon="0.835219">
        <ele>1571.9</ele>
        <time>2013-01-29T09:52:06Z</time>
      </trkpt>
      <trkpt lat="42.919930" lon="0.835110">
        <ele>1574.8</ele>
        <time>2013-01-29T09:52:20Z</time>
      </trkpt>
      <trkpt lat="42.919961" lon="0.835070">
        <ele>1575.3</ele>
        <time>2013-01-29T09:53:13Z</time>
      </trkpt>
      <trkpt lat="42.920012" lon="0.834967">
        <ele>1575.7</ele>
        <time>2013-01-29T09:53:49Z</time>
      </trkpt>
      <trkpt lat="42.920079" lon="0.834888">
        <ele>1576.7</ele>
        <time>2013-01-29T09:54:01Z</time>
      </trkpt>
      <trkpt lat="42.920149" lon="0.834798">
        <ele>1578.1</ele>
        <time>2013-01-29T09:54:13Z</time>
      </trkpt>
      <trkpt lat="42.920207" lon="0.834703">
        <ele>1579.6</ele>
        <time>2013-01-29T09:54:25Z</time>
      </trkpt>
      <trkpt lat="42.920251" lon="0.834604">
        <ele>1582.5</ele>
        <time>2013-01-29T09:54:40Z</time>
      </trkpt>
      <trkpt lat="42.920277" lon="0.834472">
        <ele>1584.9</ele>
        <time>2013-01-29T09:54:56Z</time>
      </trkpt>
      <trkpt lat="42.920296" lon="0.834346">
        <ele>1586.8</ele>
        <time>2013-01-29T09:55:10Z</time>
      </trkpt>
      <trkpt lat="42.920319" lon="0.834215">
        <ele>1588.7</ele>
        <time>2013-01-29T09:55:23Z</time>
      </trkpt>
      <trkpt lat="42.920338" lon="0.834085">
        <ele>1591.1</ele>
        <time>2013-01-29T09:55:35Z</time>
      </trkpt>
      <trkpt lat="42.920349" lon="0.833945">
        <ele>1593.5</ele>
        <time>2013-01-29T09:55:48Z</time>
      </trkpt>
      <trkpt lat="42.920340" lon="0.833805">
        <ele>1595.0</ele>
        <time>2013-01-29T09:55:58Z</time>
      </trkpt>
      <trkpt lat="42.920336" lon="0.833663">
        <ele>1596.9</ele>
        <time>2013-01-29T09:56:08Z</time>
      </trkpt>
      <trkpt lat="42.920316" lon="0.833533">
        <ele>1598.8</ele>
        <time>2013-01-29T09:56:17Z</time>
      </trkpt>
      <trkpt lat="42.920300" lon="0.833392">
        <ele>1600.7</ele>
        <time>2013-01-29T09:56:27Z</time>
      </trkpt>
      <trkpt lat="42.920297" lon="0.833261">
        <ele>1602.2</ele>
        <time>2013-01-29T09:56:37Z</time>
      </trkpt>
      <trkpt lat="42.920288" lon="0.833130">
        <ele>1603.6</ele>
        <time>2013-01-29T09:56:46Z</time>
      </trkpt>
      <trkpt lat="42.920272" lon="0.833009">
        <ele>1605.5</ele>
        <time>2013-01-29T09:56:55Z</time>
      </trkpt>
      <trkpt lat="42.920250" lon="0.832883">
        <ele>1607.5</ele>
        <time>2013-01-29T09:57:04Z</time>
      </trkpt>
      <trkpt lat="42.920220" lon="0.832769">
        <ele>1608.9</ele>
        <time>2013-01-29T09:57:13Z</time>
      </trkpt>
      <trkpt lat="42.920205" lon="0.832646">
        <ele>1609.9</ele>
        <time>2013-01-29T09:57:21Z</time>
      </trkpt>
      <trkpt lat="42.920193" lon="0.832510">
        <ele>1610.3</ele>
        <time>2013-01-29T09:57:30Z</time>
      </trkpt>
      <trkpt lat="42.920173" lon="0.832389">
        <ele>1611.3</ele>
        <time>2013-01-29T09:57:45Z</time>
      </trkpt>
      <trkpt lat="42.920137" lon="0.832270">
        <ele>1611.8</ele>
        <time>2013-01-29T09:57:52Z</time>
      </trkpt>
      <trkpt lat="42.920117" lon="0.832149">
        <ele>1612.3</ele>
        <time>2013-01-29T09:57:59Z</time>
      </trkpt>
      <trkpt lat="42.920105" lon="0.832032">
        <ele>1612.8</ele>
        <time>2013-01-29T09:58:12Z</time>
      </trkpt>
      <trkpt lat="42.920087" lon="0.831905">
        <ele>1614.2</ele>
        <time>2013-01-29T09:58:23Z</time>
      </trkpt>
      <trkpt lat="42.920069" lon="0.831779">
        <ele>1614.7</ele>
        <time>2013-01-29T09:58:35Z</time>
      </trkpt>
      <trkpt lat="42.920053" lon="0.831646">
        <ele>1615.2</ele>
        <time>2013-01-29T09:58:46Z</time>
      </trkpt>
      <trkpt lat="42.920044" lon="0.831520">
        <ele>1615.6</ele>
        <time>2013-01-29T09:58:58Z</time>
      </trkpt>
      <trkpt lat="42.920014" lon="0.831401">
        <ele>1615.6</ele>
        <time>2013-01-29T09:59:16Z</time>
      </trkpt>
      <trkpt lat="42.919975" lon="0.831288">
        <ele>1616.6</ele>
        <time>2013-01-29T09:59:27Z</time>
      </trkpt>
      <trkpt lat="42.919939" lon="0.831180">
        <ele>1617.1</ele>
        <time>2013-01-29T09:59:40Z</time>
      </trkpt>
      <trkpt lat="42.919913" lon="0.831072">
        <ele>1619.0</ele>
        <time>2013-01-29T10:00:00Z</time>
      </trkpt>
      <trkpt lat="42.919874" lon="0.830959">
        <ele>1620.0</ele>
        <time>2013-01-29T10:00:12Z</time>
      </trkpt>
      <trkpt lat="42.919832" lon="0.830855">
        <ele>1621.9</ele>
        <time>2013-01-29T10:00:25Z</time>
      </trkpt>
      <trkpt lat="42.919783" lon="0.830770">
        <ele>1623.3</ele>
        <time>2013-01-29T10:00:38Z</time>
      </trkpt>
      <trkpt lat="42.919727" lon="0.830674">
        <ele>1624.3</ele>
        <time>2013-01-29T10:00:52Z</time>
      </trkpt>
      <trkpt lat="42.919662" lon="0.830585">
        <ele>1625.7</ele>
        <time>2013-01-29T10:01:04Z</time>
      </trkpt>
      <trkpt lat="42.919594" lon="0.830496">
        <ele>1626.7</ele>
        <time>2013-01-29T10:01:16Z</time>
      </trkpt>
      <trkpt lat="42.919528" lon="0.830404">
        <ele>1628.1</ele>
        <time>2013-01-29T10:01:28Z</time>
      </trkpt>
      <trkpt lat="42.919452" lon="0.830325">
        <ele>1630.1</ele>
        <time>2013-01-29T10:01:43Z</time>
      </trkpt>
      <trkpt lat="42.919383" lon="0.830242">
        <ele>1632.0</ele>
        <time>2013-01-29T10:01:57Z</time>
      </trkpt>
      <trkpt lat="42.919314" lon="0.830180">
        <ele>1634.9</ele>
        <time>2013-01-29T10:02:13Z</time>
      </trkpt>
      <trkpt lat="42.919254" lon="0.830126">
        <ele>1638.2</ele>
        <time>2013-01-29T10:02:33Z</time>
      </trkpt>
      <trkpt lat="42.919176" lon="0.830068">
        <ele>1641.1</ele>
        <time>2013-01-29T10:02:50Z</time>
      </trkpt>
      <trkpt lat="42.919111" lon="0.829991">
        <ele>1642.6</ele>
        <time>2013-01-29T10:03:05Z</time>
      </trkpt>
      <trkpt lat="42.919041" lon="0.829934">
        <ele>1644.5</ele>
        <time>2013-01-29T10:03:18Z</time>
      </trkpt>
      <trkpt lat="42.918971" lon="0.829899">
        <ele>1645.4</ele>
        <time>2013-01-29T10:03:35Z</time>
      </trkpt>
      <trkpt lat="42.918897" lon="0.829833">
        <ele>1648.8</ele>
        <time>2013-01-29T10:04:26Z</time>
      </trkpt>
      <trkpt lat="42.918828" lon="0.829732">
        <ele>1649.8</ele>
        <time>2013-01-29T10:04:40Z</time>
      </trkpt>
      <trkpt lat="42.918763" lon="0.829647">
        <ele>1651.7</ele>
        <time>2013-01-29T10:04:53Z</time>
      </trkpt>
      <trkpt lat="42.918704" lon="0.829551">
        <ele>1653.6</ele>
        <time>2013-01-29T10:05:10Z</time>
      </trkpt>
      <trkpt lat="42.918629" lon="0.829480">
        <ele>1655.1</ele>
        <time>2013-01-29T10:05:24Z</time>
      </trkpt>
      <trkpt lat="42.918559" lon="0.829397">
        <ele>1657.0</ele>
        <time>2013-01-29T10:05:38Z</time>
      </trkpt>
      <trkpt lat="42.918488" lon="0.829314">
        <ele>1657.9</ele>
        <time>2013-01-29T10:05:51Z</time>
      </trkpt>
      <trkpt lat="42.918424" lon="0.829230">
        <ele>1658.9</ele>
        <time>2013-01-29T10:06:03Z</time>
      </trkpt>
      <trkpt lat="42.918349" lon="0.829153">
        <ele>1660.3</ele>
        <time>2013-01-29T10:06:14Z</time>
      </trkpt>
      <trkpt lat="42.918274" lon="0.829062">
        <ele>1660.8</ele>
        <time>2013-01-29T10:06:27Z</time>
      </trkpt>
      <trkpt lat="42.918212" lon="0.828977">
        <ele>1661.8</ele>
        <time>2013-01-29T10:06:38Z</time>
      </trkpt>
      <trkpt lat="42.918145" lon="0.828895">
        <ele>1662.7</ele>
        <time>2013-01-29T10:06:49Z</time>
      </trkpt>
      <trkpt lat="42.918069" lon="0.828813">
        <ele>1663.7</ele>
        <time>2013-01-29T10:07:01Z</time>
      </trkpt>
      <trkpt lat="42.917994" lon="0.828728">
        <ele>1664.2</ele>
        <time>2013-01-29T10:07:12Z</time>
      </trkpt>
      <trkpt lat="42.917924" lon="0.828675">
        <ele>1665.1</ele>
        <time>2013-01-29T10:07:28Z</time>
      </trkpt>
      <trkpt lat="42.917852" lon="0.828582">
        <ele>1664.7</ele>
        <time>2013-01-29T10:07:38Z</time>
      </trkpt>
      <trkpt lat="42.917810" lon="0.828508">
        <ele>1665.6</ele>
        <time>2013-01-29T10:08:00Z</time>
      </trkpt>
      <trkpt lat="42.917764" lon="0.828396">
        <ele>1664.7</ele>
        <time>2013-01-29T10:09:26Z</time>
      </trkpt>
      <trkpt lat="42.917688" lon="0.828329">
        <ele>1665.6</ele>
        <time>2013-01-29T10:09:37Z</time>
      </trkpt>
      <trkpt lat="42.917598" lon="0.828298">
        <ele>1665.1</ele>
        <time>2013-01-29T10:09:48Z</time>
      </trkpt>
      <trkpt lat="42.917508" lon="0.828258">
        <ele>1666.1</ele>
        <time>2013-01-29T10:09:59Z</time>
      </trkpt>
      <trkpt lat="42.917465" lon="0.828237">
        <ele>1666.1</ele>
        <time>2013-01-29T10:10:32Z</time>
      </trkpt>
      <trkpt lat="42.917464" lon="0.828241">
        <ele>1666.1</ele>
        <time>2013-01-29T10:11:35Z</time>
      </trkpt>
      <trkpt lat="42.917381" lon="0.828165">
        <ele>1667.5</ele>
        <time>2013-01-29T10:11:46Z</time>
      </trkpt>
      <trkpt lat="42.917298" lon="0.828091">
        <ele>1668.0</ele>
        <time>2013-01-29T10:11:57Z</time>
      </trkpt>
      <trkpt lat="42.917228" lon="0.828017">
        <ele>1668.0</ele>
        <time>2013-01-29T10:13:47Z</time>
        <name>Le Puech</name>
      </trkpt>
      <trkpt lat="42.917228" lon="0.828015">
        <ele>1667.5</ele>
        <time>2013-01-29T10:19:03Z</time>
      </trkpt>
      <trkpt lat="42.917278" lon="0.828093">
        <ele>1666.1</ele>
        <time>2013-01-29T10:21:30Z</time>
      </trkpt>
      <trkpt lat="42.917354" lon="0.828155">
        <ele>1665.6</ele>
        <time>2013-01-29T10:21:45Z</time>
      </trkpt>
      <trkpt lat="42.917436" lon="0.828231">
        <ele>1664.7</ele>
        <time>2013-01-29T10:21:58Z</time>
      </trkpt>
      <trkpt lat="42.917514" lon="0.828287">
        <ele>1664.7</ele>
        <time>2013-01-29T10:22:09Z</time>
      </trkpt>
      <trkpt lat="42.917592" lon="0.828341">
        <ele>1663.7</ele>
        <time>2013-01-29T10:22:20Z</time>
      </trkpt>
      <trkpt lat="42.917681" lon="0.828402">
        <ele>1663.7</ele>
        <time>2013-01-29T10:22:32Z</time>
      </trkpt>
      <trkpt lat="42.917776" lon="0.828476">
        <ele>1662.7</ele>
        <time>2013-01-29T10:22:43Z</time>
      </trkpt>
      <trkpt lat="42.917858" lon="0.828557">
        <ele>1663.2</ele>
        <time>2013-01-29T10:22:54Z</time>
      </trkpt>
      <trkpt lat="42.917916" lon="0.828658">
        <ele>1663.2</ele>
        <time>2013-01-29T10:23:06Z</time>
      </trkpt>
      <trkpt lat="42.917980" lon="0.828734">
        <ele>1663.2</ele>
        <time>2013-01-29T10:23:16Z</time>
      </trkpt>
      <trkpt lat="42.918043" lon="0.828812">
        <ele>1662.3</ele>
        <time>2013-01-29T10:23:26Z</time>
      </trkpt>
      <trkpt lat="42.918109" lon="0.828899">
        <ele>1661.8</ele>
        <time>2013-01-29T10:23:36Z</time>
      </trkpt>
      <trkpt lat="42.918171" lon="0.828997">
        <ele>1659.8</ele>
        <time>2013-01-29T10:23:48Z</time>
      </trkpt>
      <trkpt lat="42.918233" lon="0.829092">
        <ele>1659.4</ele>
        <time>2013-01-29T10:23:58Z</time>
      </trkpt>
      <trkpt lat="42.918303" lon="0.829185">
        <ele>1657.9</ele>
        <time>2013-01-29T10:24:08Z</time>
      </trkpt>
      <trkpt lat="42.918380" lon="0.829276">
        <ele>1657.0</ele>
        <time>2013-01-29T10:24:18Z</time>
      </trkpt>
      <trkpt lat="42.918454" lon="0.829353">
        <ele>1656.0</ele>
        <time>2013-01-29T10:24:28Z</time>
      </trkpt>
      <trkpt lat="42.918525" lon="0.829438">
        <ele>1655.1</ele>
        <time>2013-01-29T10:24:37Z</time>
      </trkpt>
      <trkpt lat="42.918598" lon="0.829510">
        <ele>1653.1</ele>
        <time>2013-01-29T10:24:46Z</time>
      </trkpt>
      <trkpt lat="42.918678" lon="0.829593">
        <ele>1651.7</ele>
        <time>2013-01-29T10:24:56Z</time>
      </trkpt>
      <trkpt lat="42.918755" lon="0.829680">
        <ele>1649.3</ele>
        <time>2013-01-29T10:25:06Z</time>
      </trkpt>
      <trkpt lat="42.918825" lon="0.829758">
        <ele>1648.3</ele>
        <time>2013-01-29T10:25:15Z</time>
      </trkpt>
      <trkpt lat="42.918894" lon="0.829841">
        <ele>1645.9</ele>
        <time>2013-01-29T10:25:24Z</time>
      </trkpt>
      <trkpt lat="42.918971" lon="0.829919">
        <ele>1643.5</ele>
        <time>2013-01-29T10:25:53Z</time>
      </trkpt>
      <trkpt lat="42.919048" lon="0.829987">
        <ele>1641.1</ele>
        <time>2013-01-29T10:26:03Z</time>
      </trkpt>
      <trkpt lat="42.919114" lon="0.830063">
        <ele>1640.6</ele>
        <time>2013-01-29T10:26:14Z</time>
      </trkpt>
      <trkpt lat="42.919192" lon="0.830149">
        <ele>1637.3</ele>
        <time>2013-01-29T10:26:24Z</time>
      </trkpt>
      <trkpt lat="42.919271" lon="0.830221">
        <ele>1633.4</ele>
        <time>2013-01-29T10:26:34Z</time>
      </trkpt>
      <trkpt lat="42.919343" lon="0.830307">
        <ele>1630.5</ele>
        <time>2013-01-29T10:26:44Z</time>
      </trkpt>
      <trkpt lat="42.919421" lon="0.830386">
        <ele>1628.1</ele>
        <time>2013-01-29T10:26:54Z</time>
      </trkpt>
      <trkpt lat="42.919504" lon="0.830445">
        <ele>1626.7</ele>
        <time>2013-01-29T10:27:03Z</time>
      </trkpt>
      <trkpt lat="42.919582" lon="0.830519">
        <ele>1625.2</ele>
        <time>2013-01-29T10:27:12Z</time>
      </trkpt>
      <trkpt lat="42.919649" lon="0.830612">
        <ele>1624.8</ele>
        <time>2013-01-29T10:27:22Z</time>
      </trkpt>
      <trkpt lat="42.919718" lon="0.830702">
        <ele>1623.3</ele>
        <time>2013-01-29T10:27:32Z</time>
      </trkpt>
      <trkpt lat="42.919781" lon="0.830802">
        <ele>1621.4</ele>
        <time>2013-01-29T10:27:41Z</time>
      </trkpt>
      <trkpt lat="42.919842" lon="0.830899">
        <ele>1619.5</ele>
        <time>2013-01-29T10:27:50Z</time>
      </trkpt>
      <trkpt lat="42.919895" lon="0.831005">
        <ele>1618.0</ele>
        <time>2013-01-29T10:27:59Z</time>
      </trkpt>
      <trkpt lat="42.919953" lon="0.831115">
        <ele>1616.6</ele>
        <time>2013-01-29T10:28:08Z</time>
      </trkpt>
      <trkpt lat="42.919990" lon="0.831228">
        <ele>1615.6</ele>
        <time>2013-01-29T10:28:16Z</time>
      </trkpt>
      <trkpt lat="42.920024" lon="0.831355">
        <ele>1614.7</ele>
        <time>2013-01-29T10:28:25Z</time>
      </trkpt>
      <trkpt lat="42.920040" lon="0.831480">
        <ele>1613.7</ele>
        <time>2013-01-29T10:28:34Z</time>
      </trkpt>
      <trkpt lat="42.920052" lon="0.831611">
        <ele>1613.7</ele>
        <time>2013-01-29T10:28:43Z</time>
      </trkpt>
      <trkpt lat="42.920066" lon="0.831749">
        <ele>1613.7</ele>
        <time>2013-01-29T10:28:52Z</time>
      </trkpt>
      <trkpt lat="42.920074" lon="0.831871">
        <ele>1613.2</ele>
        <time>2013-01-29T10:29:00Z</time>
      </trkpt>
      <trkpt lat="42.920100" lon="0.831987">
        <ele>1611.8</ele>
        <time>2013-01-29T10:29:08Z</time>
      </trkpt>
      <trkpt lat="42.920124" lon="0.832120">
        <ele>1612.3</ele>
        <time>2013-01-29T10:29:17Z</time>
      </trkpt>
      <trkpt lat="42.920134" lon="0.832247">
        <ele>1611.3</ele>
        <time>2013-01-29T10:29:26Z</time>
      </trkpt>
      <trkpt lat="42.920153" lon="0.832375">
        <ele>1610.8</ele>
        <time>2013-01-29T10:29:35Z</time>
      </trkpt>
      <trkpt lat="42.920179" lon="0.832489">
        <ele>1609.9</ele>
        <time>2013-01-29T10:29:44Z</time>
      </trkpt>
      <trkpt lat="42.920204" lon="0.832616">
        <ele>1608.9</ele>
        <time>2013-01-29T10:29:55Z</time>
      </trkpt>
      <trkpt lat="42.920211" lon="0.832741">
        <ele>1608.4</ele>
        <time>2013-01-29T10:30:05Z</time>
      </trkpt>
      <trkpt lat="42.920230" lon="0.832858">
        <ele>1607.5</ele>
        <time>2013-01-29T10:30:14Z</time>
      </trkpt>
      <trkpt lat="42.920263" lon="0.832977">
        <ele>1605.1</ele>
        <time>2013-01-29T10:30:25Z</time>
      </trkpt>
      <trkpt lat="42.920283" lon="0.833097">
        <ele>1603.1</ele>
        <time>2013-01-29T10:30:35Z</time>
      </trkpt>
      <trkpt lat="42.920301" lon="0.833224">
        <ele>1601.2</ele>
        <time>2013-01-29T10:30:45Z</time>
      </trkpt>
      <trkpt lat="42.920314" lon="0.833355">
        <ele>1599.3</ele>
        <time>2013-01-29T10:30:55Z</time>
      </trkpt>
      <trkpt lat="42.920335" lon="0.833464">
        <ele>1597.8</ele>
        <time>2013-01-29T10:31:04Z</time>
      </trkpt>
      <trkpt lat="42.920353" lon="0.833590">
        <ele>1596.9</ele>
        <time>2013-01-29T10:31:14Z</time>
      </trkpt>
      <trkpt lat="42.920387" lon="0.833710">
        <ele>1595.0</ele>
        <time>2013-01-29T10:31:24Z</time>
      </trkpt>
      <trkpt lat="42.920391" lon="0.833829">
        <ele>1594.5</ele>
        <time>2013-01-29T10:31:33Z</time>
      </trkpt>
      <trkpt lat="42.920351" lon="0.833959">
        <ele>1592.6</ele>
        <time>2013-01-29T10:31:43Z</time>
      </trkpt>
      <trkpt lat="42.920326" lon="0.834070">
        <ele>1590.6</ele>
        <time>2013-01-29T10:31:54Z</time>
      </trkpt>
      <trkpt lat="42.920305" lon="0.834204">
        <ele>1588.7</ele>
        <time>2013-01-29T10:32:05Z</time>
      </trkpt>
      <trkpt lat="42.920283" lon="0.834318">
        <ele>1587.3</ele>
        <time>2013-01-29T10:32:14Z</time>
      </trkpt>
      <trkpt lat="42.920270" lon="0.834445">
        <ele>1584.4</ele>
        <time>2013-01-29T10:32:23Z</time>
      </trkpt>
      <trkpt lat="42.920252" lon="0.834565">
        <ele>1582.0</ele>
        <time>2013-01-29T10:32:32Z</time>
      </trkpt>
      <trkpt lat="42.920212" lon="0.834680">
        <ele>1579.6</ele>
        <time>2013-01-29T10:32:42Z</time>
      </trkpt>
      <trkpt lat="42.920162" lon="0.834767">
        <ele>1578.1</ele>
        <time>2013-01-29T10:32:51Z</time>
      </trkpt>
      <trkpt lat="42.920129" lon="0.834859">
        <ele>1576.2</ele>
        <time>2013-01-29T10:35:43Z</time>
      </trkpt>
      <trkpt lat="42.920056" lon="0.834927">
        <ele>1576.2</ele>
        <time>2013-01-29T10:39:04Z</time>
      </trkpt>
      <trkpt lat="42.919985" lon="0.835029">
        <ele>1575.3</ele>
        <time>2013-01-29T10:39:15Z</time>
      </trkpt>
      <trkpt lat="42.919920" lon="0.835118">
        <ele>1574.3</ele>
        <time>2013-01-29T10:39:25Z</time>
      </trkpt>
      <trkpt lat="42.919860" lon="0.835214">
        <ele>1572.8</ele>
        <time>2013-01-29T10:39:35Z</time>
      </trkpt>
      <trkpt lat="42.919868" lon="0.835347">
        <ele>1570.4</ele>
        <time>2013-01-29T10:39:46Z</time>
      </trkpt>
      <trkpt lat="42.919894" lon="0.835478">
        <ele>1567.1</ele>
        <time>2013-01-29T10:39:58Z</time>
      </trkpt>
      <trkpt lat="42.919925" lon="0.835603">
        <ele>1562.8</ele>
        <time>2013-01-29T10:40:09Z</time>
      </trkpt>
      <trkpt lat="42.919965" lon="0.835721">
        <ele>1559.4</ele>
        <time>2013-01-29T10:40:20Z</time>
      </trkpt>
      <trkpt lat="42.919989" lon="0.835841">
        <ele>1556.5</ele>
        <time>2013-01-29T10:40:31Z</time>
      </trkpt>
      <trkpt lat="42.919959" lon="0.835966">
        <ele>1553.6</ele>
        <time>2013-01-29T10:40:41Z</time>
      </trkpt>
      <trkpt lat="42.919937" lon="0.836089">
        <ele>1550.7</ele>
        <time>2013-01-29T10:40:51Z</time>
      </trkpt>
      <trkpt lat="42.919959" lon="0.836206">
        <ele>1547.4</ele>
        <time>2013-01-29T10:41:02Z</time>
      </trkpt>
      <trkpt lat="42.920004" lon="0.836316">
        <ele>1545.5</ele>
        <time>2013-01-29T10:41:13Z</time>
      </trkpt>
      <trkpt lat="42.920028" lon="0.836438">
        <ele>1543.1</ele>
        <time>2013-01-29T10:41:25Z</time>
      </trkpt>
      <trkpt lat="42.920074" lon="0.836563">
        <ele>1540.7</ele>
        <time>2013-01-29T10:41:36Z</time>
      </trkpt>
      <trkpt lat="42.920094" lon="0.836693">
        <ele>1537.8</ele>
        <time>2013-01-29T10:41:47Z</time>
      </trkpt>
      <trkpt lat="42.920119" lon="0.836815">
        <ele>1536.3</ele>
        <time>2013-01-29T10:41:56Z</time>
      </trkpt>
      <trkpt lat="42.920159" lon="0.836933">
        <ele>1533.9</ele>
        <time>2013-01-29T10:42:06Z</time>
      </trkpt>
      <trkpt lat="42.920205" lon="0.837044">
        <ele>1532.0</ele>
        <time>2013-01-29T10:42:16Z</time>
      </trkpt>
      <trkpt lat="42.920238" lon="0.837154">
        <ele>1529.6</ele>
        <time>2013-01-29T10:42:26Z</time>
      </trkpt>
      <trkpt lat="42.920265" lon="0.837277">
        <ele>1527.2</ele>
        <time>2013-01-29T10:42:35Z</time>
      </trkpt>
      <trkpt lat="42.920281" lon="0.837410">
        <ele>1526.2</ele>
        <time>2013-01-29T10:42:44Z</time>
      </trkpt>
      <trkpt lat="42.920290" lon="0.837534">
        <ele>1524.3</ele>
        <time>2013-01-29T10:42:53Z</time>
      </trkpt>
      <trkpt lat="42.920299" lon="0.837659">
        <ele>1522.9</ele>
        <time>2013-01-29T10:43:02Z</time>
      </trkpt>
      <trkpt lat="42.920345" lon="0.837751">
        <ele>1521.4</ele>
        <time>2013-01-29T10:43:11Z</time>
      </trkpt>
      <trkpt lat="42.920416" lon="0.837847">
        <ele>1520.5</ele>
        <time>2013-01-29T10:43:20Z</time>
      </trkpt>
      <trkpt lat="42.920483" lon="0.837931">
        <ele>1520.0</ele>
        <time>2013-01-29T10:43:28Z</time>
      </trkpt>
      <trkpt lat="42.920553" lon="0.838013">
        <ele>1519.5</ele>
        <time>2013-01-29T10:43:37Z</time>
      </trkpt>
      <trkpt lat="42.920626" lon="0.838115">
        <ele>1519.0</ele>
        <time>2013-01-29T10:43:46Z</time>
      </trkpt>
      <trkpt lat="42.920710" lon="0.838197">
        <ele>1518.1</ele>
        <time>2013-01-29T10:43:54Z</time>
      </trkpt>
      <trkpt lat="42.920781" lon="0.838284">
        <ele>1517.6</ele>
        <time>2013-01-29T10:44:02Z</time>
      </trkpt>
      <trkpt lat="42.920847" lon="0.838368">
        <ele>1517.1</ele>
        <time>2013-01-29T10:44:10Z</time>
      </trkpt>
      <trkpt lat="42.920930" lon="0.838437">
        <ele>1515.7</ele>
        <time>2013-01-29T10:44:19Z</time>
      </trkpt>
      <trkpt lat="42.921010" lon="0.838519">
        <ele>1514.2</ele>
        <time>2013-01-29T10:44:28Z</time>
      </trkpt>
      <trkpt lat="42.921088" lon="0.838597">
        <ele>1512.8</ele>
        <time>2013-01-29T10:44:36Z</time>
      </trkpt>
      <trkpt lat="42.921159" lon="0.838676">
        <ele>1511.3</ele>
        <time>2013-01-29T10:44:44Z</time>
      </trkpt>
      <trkpt lat="42.921237" lon="0.838769">
        <ele>1509.9</ele>
        <time>2013-01-29T10:44:53Z</time>
      </trkpt>
      <trkpt lat="42.921314" lon="0.838864">
        <ele>1507.5</ele>
        <time>2013-01-29T10:45:02Z</time>
      </trkpt>
      <trkpt lat="42.921380" lon="0.838972">
        <ele>1505.6</ele>
        <time>2013-01-29T10:45:11Z</time>
      </trkpt>
      <trkpt lat="42.921440" lon="0.839078">
        <ele>1503.2</ele>
        <time>2013-01-29T10:45:20Z</time>
      </trkpt>
      <trkpt lat="42.921488" lon="0.839192">
        <ele>1501.2</ele>
        <time>2013-01-29T10:45:29Z</time>
      </trkpt>
      <trkpt lat="42.921540" lon="0.839305">
        <ele>1498.3</ele>
        <time>2013-01-29T10:45:38Z</time>
      </trkpt>
      <trkpt lat="42.921600" lon="0.839411">
        <ele>1496.4</ele>
        <time>2013-01-29T10:45:47Z</time>
      </trkpt>
      <trkpt lat="42.921642" lon="0.839525">
        <ele>1493.6</ele>
        <time>2013-01-29T10:45:55Z</time>
      </trkpt>
      <trkpt lat="42.921636" lon="0.839668">
        <ele>1491.6</ele>
        <time>2013-01-29T10:46:03Z</time>
      </trkpt>
      <trkpt lat="42.921655" lon="0.839801">
        <ele>1490.2</ele>
        <time>2013-01-29T10:46:12Z</time>
      </trkpt>
      <trkpt lat="42.921670" lon="0.839921">
        <ele>1488.3</ele>
        <time>2013-01-29T10:46:20Z</time>
      </trkpt>
      <trkpt lat="42.921695" lon="0.840042">
        <ele>1486.3</ele>
        <time>2013-01-29T10:46:28Z</time>
      </trkpt>
      <trkpt lat="42.921716" lon="0.840165">
        <ele>1484.9</ele>
        <time>2013-01-29T10:46:36Z</time>
      </trkpt>
      <trkpt lat="42.921744" lon="0.840284">
        <ele>1483.4</ele>
        <time>2013-01-29T10:46:45Z</time>
      </trkpt>
      <trkpt lat="42.921770" lon="0.840410">
        <ele>1481.1</ele>
        <time>2013-01-29T10:46:53Z</time>
      </trkpt>
      <trkpt lat="42.921790" lon="0.840538">
        <ele>1478.7</ele>
        <time>2013-01-29T10:47:02Z</time>
      </trkpt>
      <trkpt lat="42.921806" lon="0.840666">
        <ele>1476.2</ele>
        <time>2013-01-29T10:47:12Z</time>
      </trkpt>
      <trkpt lat="42.921831" lon="0.840803">
        <ele>1474.8</ele>
        <time>2013-01-29T10:47:22Z</time>
      </trkpt>
      <trkpt lat="42.921867" lon="0.840933">
        <ele>1471.9</ele>
        <time>2013-01-29T10:47:32Z</time>
      </trkpt>
      <trkpt lat="42.921916" lon="0.841021">
        <ele>1468.6</ele>
        <time>2013-01-29T10:47:44Z</time>
      </trkpt>
      <trkpt lat="42.921978" lon="0.841123">
        <ele>1465.7</ele>
        <time>2013-01-29T10:47:56Z</time>
      </trkpt>
      <trkpt lat="42.922062" lon="0.841144">
        <ele>1463.7</ele>
        <time>2013-01-29T10:48:07Z</time>
      </trkpt>
      <trkpt lat="42.922145" lon="0.841200">
        <ele>1461.8</ele>
        <time>2013-01-29T10:48:17Z</time>
      </trkpt>
      <trkpt lat="42.922234" lon="0.841239">
        <ele>1460.9</ele>
        <time>2013-01-29T10:48:25Z</time>
      </trkpt>
      <trkpt lat="42.922323" lon="0.841293">
        <ele>1460.4</ele>
        <time>2013-01-29T10:48:35Z</time>
      </trkpt>
      <trkpt lat="42.922419" lon="0.841347">
        <ele>1460.4</ele>
        <time>2013-01-29T10:48:45Z</time>
      </trkpt>
      <trkpt lat="42.922563" lon="0.841329">
        <ele>1465.7</ele>
        <time>2013-01-29T10:48:55Z</time>
      </trkpt>
      <trkpt lat="42.922683" lon="0.841277">
        <ele>1464.5</ele>
        <time>2013-01-29T12:34:24Z</time>
      </trkpt>
      <trkpt lat="42.922802" lon="0.841212">
        <ele>1463.1</ele>
        <time>2013-01-29T12:35:18Z</time>
      </trkpt>
      <trkpt lat="42.922961" lon="0.841060">
        <ele>1460.4</ele>
        <time>2013-01-29T12:35:31Z</time>
      </trkpt>
      <trkpt lat="42.923081" lon="0.840939">
        <ele>1458.2</ele>
        <time>2013-01-29T12:35:41Z</time>
      </trkpt>
      <trkpt lat="42.923163" lon="0.840760">
        <ele>1455.6</ele>
        <time>2013-01-29T12:36:03Z</time>
      </trkpt>
      <trkpt lat="42.923245" lon="0.840693">
        <ele>1454.1</ele>
        <time>2013-01-29T12:36:14Z</time>
      </trkpt>
      <trkpt lat="42.923339" lon="0.840606">
        <ele>1457.5</ele>
        <time>2013-01-29T12:36:56Z</time>
      </trkpt>
      <trkpt lat="42.923439" lon="0.840561">
        <ele>1456.5</ele>
        <time>2013-01-29T12:37:07Z</time>
      </trkpt>
      <trkpt lat="42.923533" lon="0.840527">
        <ele>1454.6</ele>
        <time>2013-01-29T12:37:18Z</time>
      </trkpt>
      <trkpt lat="42.923628" lon="0.840477">
        <ele>1453.2</ele>
        <time>2013-01-29T12:37:33Z</time>
      </trkpt>
      <trkpt lat="42.923729" lon="0.840463">
        <ele>1450.8</ele>
        <time>2013-01-29T12:37:48Z</time>
      </trkpt>
      <trkpt lat="42.923840" lon="0.840409">
        <ele>1447.9</ele>
        <time>2013-01-29T12:38:04Z</time>
      </trkpt>
      <trkpt lat="42.923980" lon="0.840309">
        <ele>1443.1</ele>
        <time>2013-01-29T12:38:19Z</time>
      </trkpt>
      <trkpt lat="42.924125" lon="0.840188">
        <ele>1437.3</ele>
        <time>2013-01-29T12:38:36Z</time>
      </trkpt>
      <trkpt lat="42.924240" lon="0.840001">
        <ele>1433.0</ele>
        <time>2013-01-29T12:38:54Z</time>
      </trkpt>
      <trkpt lat="42.924352" lon="0.839883">
        <ele>1427.7</ele>
        <time>2013-01-29T12:39:09Z</time>
      </trkpt>
      <trkpt lat="42.924360" lon="0.839727">
        <ele>1422.9</ele>
        <time>2013-01-29T12:39:30Z</time>
      </trkpt>
      <trkpt lat="42.924341" lon="0.839564">
        <ele>1419.5</ele>
        <time>2013-01-29T12:39:45Z</time>
      </trkpt>
      <trkpt lat="42.924428" lon="0.839469">
        <ele>1416.2</ele>
        <time>2013-01-29T12:39:57Z</time>
      </trkpt>
      <trkpt lat="42.924531" lon="0.839542">
        <ele>1414.2</ele>
        <time>2013-01-29T12:40:09Z</time>
      </trkpt>
      <trkpt lat="42.924634" lon="0.839613">
        <ele>1412.8</ele>
        <time>2013-01-29T12:40:20Z</time>
      </trkpt>
      <trkpt lat="42.924729" lon="0.839694">
        <ele>1410.4</ele>
        <time>2013-01-29T12:40:31Z</time>
      </trkpt>
      <trkpt lat="42.924832" lon="0.839792">
        <ele>1408.9</ele>
        <time>2013-01-29T12:40:45Z</time>
      </trkpt>
      <trkpt lat="42.924931" lon="0.839875">
        <ele>1406.1</ele>
        <time>2013-01-29T12:40:56Z</time>
      </trkpt>
      <trkpt lat="42.925027" lon="0.839965">
        <ele>1402.7</ele>
        <time>2013-01-29T12:41:09Z</time>
      </trkpt>
      <trkpt lat="42.925116" lon="0.840072">
        <ele>1399.3</ele>
        <time>2013-01-29T12:41:21Z</time>
      </trkpt>
      <trkpt lat="42.925203" lon="0.840161">
        <ele>1396.0</ele>
        <time>2013-01-29T12:41:33Z</time>
      </trkpt>
      <trkpt lat="42.925288" lon="0.840268">
        <ele>1392.6</ele>
        <time>2013-01-29T12:41:45Z</time>
      </trkpt>
      <trkpt lat="42.925340" lon="0.840417">
        <ele>1386.8</ele>
        <time>2013-01-29T12:42:01Z</time>
      </trkpt>
      <trkpt lat="42.925445" lon="0.840540">
        <ele>1383.0</ele>
        <time>2013-01-29T12:42:15Z</time>
      </trkpt>
      <trkpt lat="42.925573" lon="0.840701">
        <ele>1379.6</ele>
        <time>2013-01-29T12:42:29Z</time>
      </trkpt>
      <trkpt lat="42.925648" lon="0.840789">
        <ele>1377.2</ele>
        <time>2013-01-29T12:42:41Z</time>
      </trkpt>
      <trkpt lat="42.925743" lon="0.840828">
        <ele>1373.4</ele>
        <time>2013-01-29T12:42:53Z</time>
      </trkpt>
      <trkpt lat="42.925864" lon="0.840894">
        <ele>1370.5</ele>
        <time>2013-01-29T12:43:32Z</time>
      </trkpt>
      <trkpt lat="42.925964" lon="0.840869">
        <ele>1367.6</ele>
        <time>2013-01-29T12:43:43Z</time>
      </trkpt>
      <trkpt lat="42.926064" lon="0.840904">
        <ele>1364.2</ele>
        <time>2013-01-29T12:43:54Z</time>
      </trkpt>
      <trkpt lat="42.926186" lon="0.840896">
        <ele>1360.4</ele>
        <time>2013-01-29T12:44:05Z</time>
      </trkpt>
      <trkpt lat="42.926330" lon="0.840903">
        <ele>1356.1</ele>
        <time>2013-01-29T12:44:18Z</time>
      </trkpt>
      <trkpt lat="42.926473" lon="0.840904">
        <ele>1353.7</ele>
        <time>2013-01-29T12:44:54Z</time>
      </trkpt>
      <trkpt lat="42.926588" lon="0.840884">
        <ele>1350.8</ele>
        <time>2013-01-29T12:45:09Z</time>
      </trkpt>
      <trkpt lat="42.926703" lon="0.840884">
        <ele>1348.4</ele>
        <time>2013-01-29T12:45:23Z</time>
      </trkpt>
      <trkpt lat="42.926823" lon="0.840883">
        <ele>1346.0</ele>
        <time>2013-01-29T12:47:03Z</time>
      </trkpt>
      <trkpt lat="42.926964" lon="0.840874">
        <ele>1344.1</ele>
        <time>2013-01-29T12:47:15Z</time>
      </trkpt>
      <trkpt lat="42.927098" lon="0.840879">
        <ele>1340.7</ele>
        <time>2013-01-29T12:47:27Z</time>
      </trkpt>
      <trkpt lat="42.927215" lon="0.840877">
        <ele>1337.3</ele>
        <time>2013-01-29T12:47:39Z</time>
      </trkpt>
      <trkpt lat="42.927331" lon="0.840889">
        <ele>1333.0</ele>
        <time>2013-01-29T12:47:51Z</time>
      </trkpt>
      <trkpt lat="42.927449" lon="0.840910">
        <ele>1330.6</ele>
        <time>2013-01-29T12:48:02Z</time>
      </trkpt>
      <trkpt lat="42.927565" lon="0.840953">
        <ele>1327.7</ele>
        <time>2013-01-29T12:48:14Z</time>
      </trkpt>
      <trkpt lat="42.927676" lon="0.841013">
        <ele>1325.8</ele>
        <time>2013-01-29T12:48:24Z</time>
      </trkpt>
      <trkpt lat="42.927793" lon="0.841073">
        <ele>1324.3</ele>
        <time>2013-01-29T12:48:33Z</time>
      </trkpt>
      <trkpt lat="42.927888" lon="0.841113">
        <ele>1322.4</ele>
        <time>2013-01-29T12:48:41Z</time>
      </trkpt>
      <trkpt lat="42.927993" lon="0.841166">
        <ele>1321.0</ele>
        <time>2013-01-29T12:48:50Z</time>
      </trkpt>
      <trkpt lat="42.928070" lon="0.841246">
        <ele>1319.1</ele>
        <time>2013-01-29T12:49:00Z</time>
      </trkpt>
      <trkpt lat="42.928157" lon="0.841307">
        <ele>1316.2</ele>
        <time>2013-01-29T12:49:38Z</time>
      </trkpt>
      <trkpt lat="42.928253" lon="0.841381">
        <ele>1313.8</ele>
        <time>2013-01-29T12:49:51Z</time>
      </trkpt>
      <trkpt lat="42.928357" lon="0.841435">
        <ele>1311.4</ele>
        <time>2013-01-29T12:50:03Z</time>
      </trkpt>
      <trkpt lat="42.928484" lon="0.841495">
        <ele>1309.0</ele>
        <time>2013-01-29T12:50:14Z</time>
      </trkpt>
      <trkpt lat="42.928590" lon="0.841525">
        <ele>1306.1</ele>
        <time>2013-01-29T12:50:23Z</time>
      </trkpt>
      <trkpt lat="42.928709" lon="0.841534">
        <ele>1303.2</ele>
        <time>2013-01-29T12:50:33Z</time>
      </trkpt>
      <trkpt lat="42.928826" lon="0.841525">
        <ele>1300.3</ele>
        <time>2013-01-29T12:50:44Z</time>
      </trkpt>
      <trkpt lat="42.928944" lon="0.841554">
        <ele>1296.5</ele>
        <time>2013-01-29T12:50:56Z</time>
      </trkpt>
      <trkpt lat="42.929049" lon="0.841543">
        <ele>1293.6</ele>
        <time>2013-01-29T12:51:07Z</time>
      </trkpt>
      <trkpt lat="42.929153" lon="0.841544">
        <ele>1291.2</ele>
        <time>2013-01-29T12:51:17Z</time>
      </trkpt>
      <trkpt lat="42.929252" lon="0.841555">
        <ele>1289.3</ele>
        <time>2013-01-29T12:51:27Z</time>
      </trkpt>
      <trkpt lat="42.929352" lon="0.841572">
        <ele>1286.4</ele>
        <time>2013-01-29T12:51:37Z</time>
      </trkpt>
      <trkpt lat="42.929454" lon="0.841586">
        <ele>1284.0</ele>
        <time>2013-01-29T12:51:47Z</time>
      </trkpt>
      <trkpt lat="42.929556" lon="0.841624">
        <ele>1281.6</ele>
        <time>2013-01-29T12:51:57Z</time>
      </trkpt>
      <trkpt lat="42.929647" lon="0.841651">
        <ele>1279.2</ele>
        <time>2013-01-29T12:52:06Z</time>
      </trkpt>
      <trkpt lat="42.929737" lon="0.841682">
        <ele>1275.8</ele>
        <time>2013-01-29T12:52:17Z</time>
      </trkpt>
      <trkpt lat="42.929832" lon="0.841708">
        <ele>1271.5</ele>
        <time>2013-01-29T12:52:30Z</time>
      </trkpt>
      <trkpt lat="42.929932" lon="0.841796">
        <ele>1267.2</ele>
        <time>2013-01-29T12:52:44Z</time>
      </trkpt>
      <trkpt lat="42.930024" lon="0.841880">
        <ele>1263.3</ele>
        <time>2013-01-29T12:52:57Z</time>
      </trkpt>
      <trkpt lat="42.930137" lon="0.841957">
        <ele>1258.5</ele>
        <time>2013-01-29T12:53:10Z</time>
      </trkpt>
      <trkpt lat="42.930268" lon="0.842031">
        <ele>1253.2</ele>
        <time>2013-01-29T12:53:28Z</time>
      </trkpt>
      <trkpt lat="42.930428" lon="0.842044">
        <ele>1248.4</ele>
        <time>2013-01-29T12:53:43Z</time>
      </trkpt>
      <trkpt lat="42.930575" lon="0.842003">
        <ele>1245.5</ele>
        <time>2013-01-29T12:53:57Z</time>
      </trkpt>
      <trkpt lat="42.930697" lon="0.841976">
        <ele>1241.7</ele>
        <time>2013-01-29T12:54:09Z</time>
      </trkpt>
      <trkpt lat="42.930843" lon="0.841982">
        <ele>1234.9</ele>
        <time>2013-01-29T12:54:27Z</time>
      </trkpt>
      <trkpt lat="42.930930" lon="0.842045">
        <ele>1228.7</ele>
        <time>2013-01-29T12:54:43Z</time>
      </trkpt>
      <trkpt lat="42.930995" lon="0.842186">
        <ele>1225.3</ele>
        <time>2013-01-29T12:55:02Z</time>
      </trkpt>
      <trkpt lat="42.931090" lon="0.842326">
        <ele>1221.0</ele>
        <time>2013-01-29T12:55:15Z</time>
      </trkpt>
      <trkpt lat="42.931204" lon="0.842348">
        <ele>1216.2</ele>
        <time>2013-01-29T12:55:24Z</time>
      </trkpt>
      <trkpt lat="42.931359" lon="0.842336">
        <ele>1211.4</ele>
        <time>2013-01-29T12:55:36Z</time>
      </trkpt>
      <trkpt lat="42.931516" lon="0.842376">
        <ele>1208.0</ele>
        <time>2013-01-29T12:55:54Z</time>
      </trkpt>
      <trkpt lat="42.931596" lon="0.842515">
        <ele>1208.5</ele>
        <time>2013-01-29T13:00:31Z</time>
      </trkpt>
      <trkpt lat="42.931731" lon="0.842521">
        <ele>1208.0</ele>
        <time>2013-01-29T13:13:05Z</time>
      </trkpt>
      <trkpt lat="42.931783" lon="0.842555">
        <ele>1208.0</ele>
        <time>2013-01-29T13:13:21Z</time>
      </trkpt>
      <trkpt lat="42.931861" lon="0.842664">
        <ele>1208.0</ele>
        <time>2013-01-29T13:13:33Z</time>
      </trkpt>
      <trkpt lat="42.931923" lon="0.842782">
        <ele>1209.5</ele>
        <time>2013-01-29T13:13:48Z</time>
      </trkpt>
      <trkpt lat="42.931981" lon="0.842903">
        <ele>1210.4</ele>
        <time>2013-01-29T13:14:00Z</time>
      </trkpt>
      <trkpt lat="42.932075" lon="0.843035">
        <ele>1211.9</ele>
        <time>2013-01-29T13:14:14Z</time>
      </trkpt>
      <trkpt lat="42.932146" lon="0.843184">
        <ele>1213.3</ele>
        <time>2013-01-29T13:14:28Z</time>
      </trkpt>
      <trkpt lat="42.932215" lon="0.843310">
        <ele>1212.8</ele>
        <time>2013-01-29T13:14:38Z</time>
      </trkpt>
      <trkpt lat="42.932287" lon="0.843395">
        <ele>1213.8</ele>
        <time>2013-01-29T13:14:47Z</time>
      </trkpt>
      <trkpt lat="42.932360" lon="0.843485">
        <ele>1213.3</ele>
        <time>2013-01-29T13:14:57Z</time>
      </trkpt>
      <trkpt lat="42.932434" lon="0.843560">
        <ele>1212.8</ele>
        <time>2013-01-29T13:15:08Z</time>
      </trkpt>
      <trkpt lat="42.932489" lon="0.843588">
        <ele>1212.4</ele>
        <time>2013-01-29T13:15:30Z</time>
      </trkpt>
      <trkpt lat="42.932520" lon="0.843673">
        <ele>1213.3</ele>
        <time>2013-01-29T13:18:00Z</time>
      </trkpt>
      <trkpt lat="42.932689" lon="0.843741">
        <ele>1215.2</ele>
        <time>2013-01-29T13:18:21Z</time>
      </trkpt>
      <trkpt lat="42.932838" lon="0.843840">
        <ele>1215.7</ele>
        <time>2013-01-29T13:18:40Z</time>
      </trkpt>
      <trkpt lat="42.932980" lon="0.843964">
        <ele>1217.2</ele>
        <time>2013-01-29T13:19:00Z</time>
      </trkpt>
      <trkpt lat="42.933170" lon="0.844118">
        <ele>1218.1</ele>
        <time>2013-01-29T13:19:21Z</time>
      </trkpt>
      <trkpt lat="42.933270" lon="0.844315">
        <ele>1220.1</ele>
        <time>2013-01-29T13:19:40Z</time>
      </trkpt>
      <trkpt lat="42.933376" lon="0.844537">
        <ele>1221.0</ele>
        <time>2013-01-29T13:20:00Z</time>
      </trkpt>
      <trkpt lat="42.933450" lon="0.844696">
        <ele>1222.9</ele>
        <time>2013-01-29T13:20:18Z</time>
      </trkpt>
      <trkpt lat="42.933575" lon="0.844870">
        <ele>1224.9</ele>
        <time>2013-01-29T13:20:36Z</time>
      </trkpt>
      <trkpt lat="42.933670" lon="0.845028">
        <ele>1225.3</ele>
        <time>2013-01-29T13:20:51Z</time>
      </trkpt>
      <trkpt lat="42.933755" lon="0.845208">
        <ele>1225.3</ele>
        <time>2013-01-29T13:21:10Z</time>
      </trkpt>
      <trkpt lat="42.933797" lon="0.845398">
        <ele>1225.8</ele>
        <time>2013-01-29T13:21:28Z</time>
      </trkpt>
      <trkpt lat="42.933847" lon="0.845588">
        <ele>1226.3</ele>
        <time>2013-01-29T13:21:44Z</time>
      </trkpt>
      <trkpt lat="42.933935" lon="0.845740">
        <ele>1226.3</ele>
        <time>2013-01-29T13:21:57Z</time>
      </trkpt>
      <trkpt lat="42.934035" lon="0.845868">
        <ele>1226.8</ele>
        <time>2013-01-29T13:22:10Z</time>
      </trkpt>
      <trkpt lat="42.934139" lon="0.845939">
        <ele>1225.3</ele>
        <time>2013-01-29T13:22:23Z</time>
      </trkpt>
      <trkpt lat="42.934276" lon="0.846024">
        <ele>1223.9</ele>
        <time>2013-01-29T13:22:42Z</time>
      </trkpt>
      <trkpt lat="42.934414" lon="0.846096">
        <ele>1224.4</ele>
        <time>2013-01-29T13:23:01Z</time>
      </trkpt>
      <trkpt lat="42.934543" lon="0.846168">
        <ele>1223.4</ele>
        <time>2013-01-29T13:23:17Z</time>
      </trkpt>
      <trkpt lat="42.934646" lon="0.846275">
        <ele>1221.0</ele>
        <time>2013-01-29T13:23:32Z</time>
      </trkpt>
      <trkpt lat="42.934764" lon="0.846446">
        <ele>1219.1</ele>
        <time>2013-01-29T13:23:49Z</time>
      </trkpt>
      <trkpt lat="42.934847" lon="0.846612">
        <ele>1217.2</ele>
        <time>2013-01-29T13:24:06Z</time>
      </trkpt>
      <trkpt lat="42.934911" lon="0.846795">
        <ele>1216.2</ele>
        <time>2013-01-29T13:24:21Z</time>
      </trkpt>
      <trkpt lat="42.934964" lon="0.846995">
        <ele>1215.2</ele>
        <time>2013-01-29T13:24:35Z</time>
      </trkpt>
      <trkpt lat="42.935031" lon="0.847108">
        <ele>1214.8</ele>
        <time>2013-01-29T13:24:47Z</time>
      </trkpt>
      <trkpt lat="42.935119" lon="0.847226">
        <ele>1214.3</ele>
        <time>2013-01-29T13:24:59Z</time>
      </trkpt>
      <trkpt lat="42.935155" lon="0.847359">
        <ele>1213.8</ele>
        <time>2013-01-29T13:25:12Z</time>
      </trkpt>
      <trkpt lat="42.935193" lon="0.847509">
        <ele>1212.4</ele>
        <time>2013-01-29T13:25:24Z</time>
      </trkpt>
      <trkpt lat="42.935251" lon="0.847657">
        <ele>1211.4</ele>
        <time>2013-01-29T13:25:37Z</time>
      </trkpt>
      <trkpt lat="42.935301" lon="0.847790">
        <ele>1211.4</ele>
        <time>2013-01-29T13:25:51Z</time>
      </trkpt>
      <trkpt lat="42.935330" lon="0.847928">
        <ele>1210.4</ele>
        <time>2013-01-29T13:26:04Z</time>
      </trkpt>
      <trkpt lat="42.935367" lon="0.848090">
        <ele>1209.5</ele>
        <time>2013-01-29T13:26:18Z</time>
      </trkpt>
      <trkpt lat="42.935439" lon="0.848222">
        <ele>1208.0</ele>
        <time>2013-01-29T13:26:32Z</time>
      </trkpt>
      <trkpt lat="42.935508" lon="0.848361">
        <ele>1206.6</ele>
        <time>2013-01-29T13:26:46Z</time>
      </trkpt>
      <trkpt lat="42.935593" lon="0.848509">
        <ele>1203.2</ele>
        <time>2013-01-29T13:26:59Z</time>
      </trkpt>
      <trkpt lat="42.935637" lon="0.848648">
        <ele>1200.8</ele>
        <time>2013-01-29T13:27:15Z</time>
      </trkpt>
      <trkpt lat="42.935747" lon="0.848853">
        <ele>1197.9</ele>
        <time>2013-01-29T13:27:35Z</time>
      </trkpt>
      <trkpt lat="42.935802" lon="0.849017">
        <ele>1195.5</ele>
        <time>2013-01-29T13:27:52Z</time>
      </trkpt>
      <trkpt lat="42.935875" lon="0.849223">
        <ele>1194.1</ele>
        <time>2013-01-29T13:28:10Z</time>
      </trkpt>
      <trkpt lat="42.935955" lon="0.849367">
        <ele>1192.2</ele>
        <time>2013-01-29T13:28:24Z</time>
      </trkpt>
      <trkpt lat="42.936035" lon="0.849503">
        <ele>1189.8</ele>
        <time>2013-01-29T13:28:39Z</time>
      </trkpt>
      <trkpt lat="42.936111" lon="0.849633">
        <ele>1186.9</ele>
        <time>2013-01-29T13:28:55Z</time>
      </trkpt>
      <trkpt lat="42.936265" lon="0.849685">
        <ele>1182.6</ele>
        <time>2013-01-29T13:29:11Z</time>
      </trkpt>
      <trkpt lat="42.936418" lon="0.849779">
        <ele>1177.3</ele>
        <time>2013-01-29T13:29:33Z</time>
      </trkpt>
      <trkpt lat="42.936590" lon="0.849833">
        <ele>1171.5</ele>
        <time>2013-01-29T13:29:53Z</time>
      </trkpt>
      <trkpt lat="42.936718" lon="0.849896">
        <ele>1167.2</ele>
        <time>2013-01-29T13:30:09Z</time>
      </trkpt>
      <trkpt lat="42.936885" lon="0.849935">
        <ele>1163.3</ele>
        <time>2013-01-29T13:30:25Z</time>
      </trkpt>
      <trkpt lat="42.936976" lon="0.850071">
        <ele>1159.5</ele>
        <time>2013-01-29T13:30:38Z</time>
      </trkpt>
      <trkpt lat="42.937082" lon="0.850190">
        <ele>1155.2</ele>
        <time>2013-01-29T13:30:54Z</time>
      </trkpt>
      <trkpt lat="42.937178" lon="0.850310">
        <ele>1152.8</ele>
        <time>2013-01-29T13:31:08Z</time>
      </trkpt>
      <trkpt lat="42.937268" lon="0.850373">
        <ele>1150.8</ele>
        <time>2013-01-29T13:31:20Z</time>
      </trkpt>
      <trkpt lat="42.937345" lon="0.850463">
        <ele>1147.5</ele>
        <time>2013-01-29T13:31:31Z</time>
      </trkpt>
      <trkpt lat="42.937424" lon="0.850530">
        <ele>1145.6</ele>
        <time>2013-01-29T13:31:41Z</time>
      </trkpt>
      <trkpt lat="42.937535" lon="0.850601">
        <ele>1144.6</ele>
        <time>2013-01-29T13:31:52Z</time>
      </trkpt>
      <trkpt lat="42.937637" lon="0.850667">
        <ele>1142.7</ele>
        <time>2013-01-29T13:32:03Z</time>
      </trkpt>
      <trkpt lat="42.937760" lon="0.850729">
        <ele>1140.7</ele>
        <time>2013-01-29T13:32:15Z</time>
      </trkpt>
      <trkpt lat="42.937930" lon="0.850774">
        <ele>1138.8</ele>
        <time>2013-01-29T13:32:35Z</time>
      </trkpt>
      <trkpt lat="42.938081" lon="0.850850">
        <ele>1136.9</ele>
        <time>2013-01-29T13:32:50Z</time>
      </trkpt>
      <trkpt lat="42.938202" lon="0.850958">
        <ele>1135.9</ele>
        <time>2013-01-29T13:33:02Z</time>
      </trkpt>
      <trkpt lat="42.938269" lon="0.851078">
        <ele>1133.5</ele>
        <time>2013-01-29T13:33:15Z</time>
      </trkpt>
      <trkpt lat="42.938393" lon="0.851171">
        <ele>1131.1</ele>
        <time>2013-01-29T13:33:29Z</time>
      </trkpt>
      <trkpt lat="42.938554" lon="0.851310">
        <ele>1129.2</ele>
        <time>2013-01-29T13:33:44Z</time>
      </trkpt>
      <trkpt lat="42.938656" lon="0.851392">
        <ele>1126.3</ele>
        <time>2013-01-29T13:33:56Z</time>
      </trkpt>
      <trkpt lat="42.938765" lon="0.851519">
        <ele>1123.4</ele>
        <time>2013-01-29T13:34:10Z</time>
      </trkpt>
      <trkpt lat="42.938856" lon="0.851600">
        <ele>1121.0</ele>
        <time>2013-01-29T13:34:22Z</time>
      </trkpt>
      <trkpt lat="42.938957" lon="0.851723">
        <ele>1117.2</ele>
        <time>2013-01-29T13:34:37Z</time>
      </trkpt>
      <trkpt lat="42.939084" lon="0.851844">
        <ele>1114.3</ele>
        <time>2013-01-29T13:35:11Z</time>
      </trkpt>
      <trkpt lat="42.939214" lon="0.851931">
        <ele>1111.9</ele>
        <time>2013-01-29T13:35:28Z</time>
      </trkpt>
      <trkpt lat="42.939373" lon="0.851985">
        <ele>1110.5</ele>
        <time>2013-01-29T13:35:43Z</time>
      </trkpt>
      <trkpt lat="42.939485" lon="0.852035">
        <ele>1108.1</ele>
        <time>2013-01-29T13:35:56Z</time>
      </trkpt>
      <trkpt lat="42.939603" lon="0.852078">
        <ele>1106.6</ele>
        <time>2013-01-29T13:36:08Z</time>
      </trkpt>
      <trkpt lat="42.939731" lon="0.852079">
        <ele>1105.7</ele>
        <time>2013-01-29T13:36:20Z</time>
      </trkpt>
      <trkpt lat="42.939847" lon="0.852055">
        <ele>1104.2</ele>
        <time>2013-01-29T13:36:33Z</time>
      </trkpt>
      <trkpt lat="42.939952" lon="0.852036">
        <ele>1096.0</ele>
        <time>2013-01-29T13:36:45Z</time>
      </trkpt>
      <trkpt lat="42.940054" lon="0.851974">
        <ele>1101.8</ele>
        <time>2013-01-29T13:36:56Z</time>
      </trkpt>
      <trkpt lat="42.940161" lon="0.851959">
        <ele>1101.3</ele>
        <time>2013-01-29T13:37:06Z</time>
      </trkpt>
      <trkpt lat="42.940266" lon="0.852002">
        <ele>1099.4</ele>
        <time>2013-01-29T13:37:16Z</time>
      </trkpt>
      <trkpt lat="42.940391" lon="0.852114">
        <ele>1096.5</ele>
        <time>2013-01-29T13:37:31Z</time>
      </trkpt>
      <trkpt lat="42.940526" lon="0.852157">
        <ele>1094.1</ele>
        <time>2013-01-29T13:37:45Z</time>
      </trkpt>
      <trkpt lat="42.940677" lon="0.852136">
        <ele>1092.7</ele>
        <time>2013-01-29T13:37:59Z</time>
      </trkpt>
      <trkpt lat="42.940769" lon="0.852098">
        <ele>1091.2</ele>
        <time>2013-01-29T13:38:10Z</time>
      </trkpt>
      <trkpt lat="42.940883" lon="0.852134">
        <ele>1090.3</ele>
        <time>2013-01-29T13:38:20Z</time>
      </trkpt>
      <trkpt lat="42.941016" lon="0.852161">
        <ele>1090.3</ele>
        <time>2013-01-29T13:38:32Z</time>
      </trkpt>
      <trkpt lat="42.941145" lon="0.852232">
        <ele>1090.3</ele>
        <time>2013-01-29T13:38:46Z</time>
      </trkpt>
      <trkpt lat="42.941352" lon="0.852359">
        <ele>1090.3</ele>
        <time>2013-01-29T13:39:06Z</time>
      </trkpt>
      <trkpt lat="42.941586" lon="0.852479">
        <ele>1089.8</ele>
        <time>2013-01-29T13:39:26Z</time>
      </trkpt>
      <trkpt lat="42.941765" lon="0.852591">
        <ele>1089.3</ele>
        <time>2013-01-29T13:39:42Z</time>
      </trkpt>
      <trkpt lat="42.941905" lon="0.852654">
        <ele>1087.9</ele>
        <time>2013-01-29T13:39:58Z</time>
      </trkpt>
      <trkpt lat="42.942050" lon="0.852835">
        <ele>1087.4</ele>
        <time>2013-01-29T13:40:15Z</time>
      </trkpt>
      <trkpt lat="42.942178" lon="0.853032">
        <ele>1086.9</ele>
        <time>2013-01-29T13:40:32Z</time>
      </trkpt>
      <trkpt lat="42.942265" lon="0.853188">
        <ele>1086.9</ele>
        <time>2013-01-29T13:40:46Z</time>
      </trkpt>
      <trkpt lat="42.942368" lon="0.853363">
        <ele>1087.9</ele>
        <time>2013-01-29T13:40:58Z</time>
      </trkpt>
      <trkpt lat="42.942407" lon="0.853554">
        <ele>1089.3</ele>
        <time>2013-01-29T13:41:15Z</time>
      </trkpt>
      <trkpt lat="42.942439" lon="0.853777">
        <ele>1091.2</ele>
        <time>2013-01-29T13:41:29Z</time>
      </trkpt>
      <trkpt lat="42.942471" lon="0.853933">
        <ele>1090.8</ele>
        <time>2013-01-29T13:41:42Z</time>
      </trkpt>
      <trkpt lat="42.942542" lon="0.854110">
        <ele>1089.3</ele>
        <time>2013-01-29T13:41:54Z</time>
      </trkpt>
      <trkpt lat="42.942666" lon="0.854250">
        <ele>1086.4</ele>
        <time>2013-01-29T13:42:08Z</time>
      </trkpt>
      <trkpt lat="42.942861" lon="0.854369">
        <ele>1084.0</ele>
        <time>2013-01-29T13:42:42Z</time>
      </trkpt>
      <trkpt lat="42.943024" lon="0.854414">
        <ele>1080.7</ele>
        <time>2013-01-29T13:42:59Z</time>
      </trkpt>
      <trkpt lat="42.943172" lon="0.854508">
        <ele>1077.8</ele>
        <time>2013-01-29T13:43:45Z</time>
      </trkpt>
      <trkpt lat="42.943291" lon="0.854524">
        <ele>1078.3</ele>
        <time>2013-01-29T13:43:58Z</time>
      </trkpt>
      <trkpt lat="42.943393" lon="0.854566">
        <ele>1077.8</ele>
        <time>2013-01-29T13:44:09Z</time>
      </trkpt>
      <trkpt lat="42.943501" lon="0.854644">
        <ele>1078.3</ele>
        <time>2013-01-29T13:44:21Z</time>
      </trkpt>
      <trkpt lat="42.943598" lon="0.854771">
        <ele>1079.7</ele>
        <time>2013-01-29T13:44:36Z</time>
      </trkpt>
      <trkpt lat="42.943688" lon="0.854866">
        <ele>1080.7</ele>
        <time>2013-01-29T13:44:49Z</time>
      </trkpt>
      <trkpt lat="42.943816" lon="0.854906">
        <ele>1081.1</ele>
        <time>2013-01-29T13:45:02Z</time>
      </trkpt>
      <trkpt lat="42.943944" lon="0.854867">
        <ele>1081.1</ele>
        <time>2013-01-29T13:45:14Z</time>
      </trkpt>
      <trkpt lat="42.944047" lon="0.854796">
        <ele>1081.1</ele>
        <time>2013-01-29T13:45:24Z</time>
      </trkpt>
      <trkpt lat="42.944138" lon="0.854702">
        <ele>1080.2</ele>
        <time>2013-01-29T13:45:34Z</time>
      </trkpt>
      <trkpt lat="42.944216" lon="0.854609">
        <ele>1078.7</ele>
        <time>2013-01-29T13:45:43Z</time>
      </trkpt>
      <trkpt lat="42.944315" lon="0.854503">
        <ele>1078.3</ele>
        <time>2013-01-29T13:45:54Z</time>
      </trkpt>
      <trkpt lat="42.944423" lon="0.854400">
        <ele>1076.8</ele>
        <time>2013-01-29T13:46:07Z</time>
      </trkpt>
      <trkpt lat="42.944571" lon="0.854333">
        <ele>1075.8</ele>
        <time>2013-01-29T13:48:18Z</time>
      </trkpt>
      <trkpt lat="42.944599" lon="0.854227">
        <ele>1074.4</ele>
        <time>2013-01-29T13:48:33Z</time>
      </trkpt>
      <trkpt lat="42.944659" lon="0.854085">
        <ele>1073.4</ele>
        <time>2013-01-29T13:48:49Z</time>
      </trkpt>
      <trkpt lat="42.944730" lon="0.853991">
        <ele>1073.4</ele>
        <time>2013-01-29T13:49:10Z</time>
      </trkpt>
      <trkpt lat="42.944812" lon="0.854057">
        <ele>1073.4</ele>
        <time>2013-01-29T13:49:25Z</time>
      </trkpt>
      <trkpt lat="42.944835" lon="0.854178">
        <ele>1071.1</ele>
        <time>2013-01-29T13:49:37Z</time>
      </trkpt>
      <trkpt lat="42.944882" lon="0.854295">
        <ele>1070.6</ele>
        <time>2013-01-29T13:49:48Z</time>
      </trkpt>
      <trkpt lat="42.944861" lon="0.854442">
        <ele>1070.6</ele>
        <time>2013-01-29T13:49:59Z</time>
      </trkpt>
      <trkpt lat="42.944856" lon="0.854533">
        <ele>1069.6</ele>
        <time>2013-01-29T13:50:19Z</time>
      </trkpt>
    </trkseg>
  </trk>
</gpx>

